<?xml version='1.0' encoding='UTF-8'?><gpx version="1.1" creator="JPX - https://github.com/jenetics/jpx" xmlns="http://www.topografix.com/GPX/1/1"><trk><trkseg><trkpt lat="43.9047526" lon="12.8954881"><ele>8.0</ele><time>2026-03-30T16:09:53.271Z</time></trkpt><trkpt lat="43.9047671" lon="12.8953895"><ele>7.999999999999999</ele><time>2026-03-30T16:09:56.735Z</time></trkpt><trkpt lat="43.9048017" lon="12.8953022"><ele>8.0</ele><time>2026-03-30T16:10:01.742Z</time></trkpt><trkpt lat="43.9048031" lon="12.8951982"><ele>8.0</ele><time>2026-03-30T16:10:07.749Z</time></trkpt><trkpt lat="43.90478" lon="12.8951168"><ele>7.999999999999999</ele><time>2026-03-30T16:10:11.745Z</time></trkpt><trkpt lat="43.9047198" lon="12.8950335"><ele>8.0</ele><time>2026-03-30T16:10:15.753Z</time></trkpt><trkpt lat="43.9046662" lon="12.8949876"><ele>8.0</ele><time>2026-03-30T16:10:18.754Z</time></trkpt><trkpt lat="43.9046091" lon="12.8949378"><ele>7.833333333333333</ele><time>2026-03-30T16:10:21.754Z</time></trkpt><trkpt lat="43.9045619" lon="12.8948669"><ele>7.666666666666666</ele><time>2026-03-30T16:10:23.753Z</time></trkpt><trkpt lat="43.904508" lon="12.8947615"><ele>7.5</ele><time>2026-03-30T16:10:25.766Z</time></trkpt><trkpt lat="43.9044583" lon="12.894681"><ele>7.333333333333334</ele><time>2026-03-30T16:10:27.754Z</time></trkpt><trkpt lat="43.9044125" lon="12.8946174"><ele>7.166666666666667</ele><time>2026-03-30T16:10:29.754Z</time></trkpt><trkpt lat="43.9043484" lon="12.8945439"><ele>7.0</ele><time>2026-03-30T16:10:32.75Z</time></trkpt><trkpt lat="43.904289" lon="12.8944581"><ele>6.833333333333334</ele><time>2026-03-30T16:10:35.76Z</time></trkpt><trkpt lat="43.9042354" lon="12.8943759"><ele>6.666666666666667</ele><time>2026-03-30T16:10:38.739Z</time></trkpt><trkpt lat="43.9041773" lon="12.8942794"><ele>6.5</ele><time>2026-03-30T16:10:41.742Z</time></trkpt><trkpt lat="43.9041111" lon="12.8942069"><ele>6.333333333333334</ele><time>2026-03-30T16:10:44.755Z</time></trkpt><trkpt lat="43.9040568" lon="12.8941519"><ele>6.166666666666667</ele><time>2026-03-30T16:10:47.751Z</time></trkpt><trkpt lat="43.9040012" lon="12.8940802"><ele>6.0</ele><time>2026-03-30T16:10:50.747Z</time></trkpt><trkpt lat="43.9039494" lon="12.8940165"><ele>5.833333333333333</ele><time>2026-03-30T16:10:53.741Z</time></trkpt><trkpt lat="43.9038963" lon="12.8939541"><ele>5.666666666666667</ele><time>2026-03-30T16:10:56.751Z</time></trkpt><trkpt lat="43.9038382" lon="12.8938766"><ele>5.5</ele><time>2026-03-30T16:10:59.752Z</time></trkpt><trkpt lat="43.9037853" lon="12.8937959"><ele>5.333333333333334</ele><time>2026-03-30T16:11:02.752Z</time></trkpt><trkpt lat="43.9037356" lon="12.8937315"><ele>5.166666666666667</ele><time>2026-03-30T16:11:05.773Z</time></trkpt><trkpt lat="43.9036786" lon="12.8936653"><ele>5.0</ele><time>2026-03-30T16:11:08.752Z</time></trkpt><trkpt lat="43.903599" lon="12.8936152"><ele>5.0</ele><time>2026-03-30T16:11:11.756Z</time></trkpt><trkpt lat="43.9035205" lon="12.8936431"><ele>5.0</ele><time>2026-03-30T16:11:14.75Z</time></trkpt><trkpt lat="43.903473" lon="12.8937074"><ele>5.0</ele><time>2026-03-30T16:11:17.757Z</time></trkpt><trkpt lat="43.9034177" lon="12.8937787"><ele>5.0</ele><time>2026-03-30T16:11:21.735Z</time></trkpt><trkpt lat="43.9033727" lon="12.8938454"><ele>5.0</ele><time>2026-03-30T16:11:23.74Z</time></trkpt><trkpt lat="43.9033225" lon="12.8939091"><ele>5.0</ele><time>2026-03-30T16:11:25.746Z</time></trkpt><trkpt lat="43.9032625" lon="12.8939892"><ele>5.0</ele><time>2026-03-30T16:11:28.754Z</time></trkpt><trkpt lat="43.9032142" lon="12.8940513"><ele>4.666666666666667</ele><time>2026-03-30T16:11:31.743Z</time></trkpt><trkpt lat="43.9031465" lon="12.8941177"><ele>4.333333333333334</ele><time>2026-03-30T16:11:35.747Z</time></trkpt><trkpt lat="43.9030884" lon="12.894214"><ele>4.0</ele><time>2026-03-30T16:11:38.743Z</time></trkpt><trkpt lat="43.9030278" lon="12.89429"><ele>3.666666666666667</ele><time>2026-03-30T16:11:41.741Z</time></trkpt><trkpt lat="43.9029681" lon="12.8943719"><ele>3.3333333333333335</ele><time>2026-03-30T16:11:44.751Z</time></trkpt><trkpt lat="43.9029228" lon="12.8944521"><ele>3.0</ele><time>2026-03-30T16:11:47.751Z</time></trkpt><trkpt lat="43.9028747" lon="12.8945429"><ele>2.8571428571428568</ele><time>2026-03-30T16:11:50.742Z</time></trkpt><trkpt lat="43.9028474" lon="12.8946347"><ele>2.7142857142857144</ele><time>2026-03-30T16:11:52.745Z</time></trkpt><trkpt lat="43.902813" lon="12.8947319"><ele>2.571428571428571</ele><time>2026-03-30T16:11:54.746Z</time></trkpt><trkpt lat="43.9027899" lon="12.8948202"><ele>2.4285714285714284</ele><time>2026-03-30T16:11:56.749Z</time></trkpt><trkpt lat="43.902763" lon="12.8949246"><ele>2.2857142857142856</ele><time>2026-03-30T16:11:58.746Z</time></trkpt><trkpt lat="43.9027925" lon="12.8950116"><ele>2.142857142857143</ele><time>2026-03-30T16:12:01.757Z</time></trkpt><trkpt lat="43.9028404" lon="12.8950994"><ele>2.0</ele><time>2026-03-30T16:12:04.746Z</time></trkpt><trkpt lat="43.9029006" lon="12.8951806"><ele>2.5</ele><time>2026-03-30T16:12:07.769Z</time></trkpt><trkpt lat="43.9029825" lon="12.8952425"><ele>3.0</ele><time>2026-03-30T16:12:10.748Z</time></trkpt><trkpt lat="43.9030626" lon="12.8953116"><ele>3.5</ele><time>2026-03-30T16:12:13.747Z</time></trkpt><trkpt lat="43.9031343" lon="12.8953779"><ele>4.0</ele><time>2026-03-30T16:12:16.74Z</time></trkpt><trkpt lat="43.9031994" lon="12.8954517"><ele>4.5</ele><time>2026-03-30T16:12:19.746Z</time></trkpt><trkpt lat="43.903245" lon="12.8955225"><ele>5.0</ele><time>2026-03-30T16:12:22.755Z</time></trkpt><trkpt lat="43.9033035" lon="12.895593"><ele>5.0</ele><time>2026-03-30T16:12:26.749Z</time></trkpt><trkpt lat="43.903352" lon="12.8956508"><ele>5.0</ele><time>2026-03-30T16:12:29.755Z</time></trkpt><trkpt lat="43.9034015" lon="12.8957206"><ele>5.0</ele><time>2026-03-30T16:12:32.744Z</time></trkpt><trkpt lat="43.9034463" lon="12.8957907"><ele>5.0</ele><time>2026-03-30T16:12:35.736Z</time></trkpt><trkpt lat="43.9035037" lon="12.895868"><ele>5.0</ele><time>2026-03-30T16:12:38.756Z</time></trkpt><trkpt lat="43.9035653" lon="12.8959399"><ele>5.0</ele><time>2026-03-30T16:12:41.743Z</time></trkpt><trkpt lat="43.903629" lon="12.8959795"><ele>5.0</ele><time>2026-03-30T16:12:43.749Z</time></trkpt><trkpt lat="43.9036905" lon="12.8960114"><ele>5.333333333333334</ele><time>2026-03-30T16:12:45.746Z</time></trkpt><trkpt lat="43.9037622" lon="12.8960286"><ele>5.666666666666667</ele><time>2026-03-30T16:12:48.748Z</time></trkpt><trkpt lat="43.9038261" lon="12.8960157"><ele>6.0</ele><time>2026-03-30T16:12:51.745Z</time></trkpt><trkpt lat="43.9039055" lon="12.8960289"><ele>6.333333333333334</ele><time>2026-03-30T16:12:55.753Z</time></trkpt><trkpt lat="43.9039826" lon="12.8960439"><ele>6.666666666666667</ele><time>2026-03-30T16:12:59.756Z</time></trkpt><trkpt lat="43.9040612" lon="12.8960422"><ele>7.0</ele><time>2026-03-30T16:13:01.76Z</time></trkpt><trkpt lat="43.9041548" lon="12.8960106"><ele>7.0</ele><time>2026-03-30T16:13:04.753Z</time></trkpt><trkpt lat="43.9042158" lon="12.8959799"><ele>7.0</ele><time>2026-03-30T16:13:06.755Z</time></trkpt><trkpt lat="43.9042724" lon="12.8959144"><ele>7.0</ele><time>2026-03-30T16:13:09.76Z</time></trkpt><trkpt lat="43.9043296" lon="12.8958405"><ele>7.0</ele><time>2026-03-30T16:13:12.754Z</time></trkpt><trkpt lat="43.904386" lon="12.8957732"><ele>7.0</ele><time>2026-03-30T16:13:15.756Z</time></trkpt><trkpt lat="43.9044438" lon="12.8956869"><ele>7.0</ele><time>2026-03-30T16:13:18.753Z</time></trkpt><trkpt lat="43.9044887" lon="12.8956245"><ele>7.0</ele><time>2026-03-30T16:13:20.75Z</time></trkpt><trkpt lat="43.9045518" lon="12.8955303"><ele>7.000000000000001</ele><time>2026-03-30T16:13:23.746Z</time></trkpt><trkpt lat="43.9046205" lon="12.8954485"><ele>7.0</ele><time>2026-03-30T16:13:26.742Z</time></trkpt><trkpt lat="43.9046886" lon="12.895362"><ele>7.0</ele><time>2026-03-30T16:13:29.74Z</time></trkpt><trkpt lat="43.9047414" lon="12.8952729"><ele>7.0</ele><time>2026-03-30T16:13:32.741Z</time></trkpt><trkpt lat="43.9047566" lon="12.895173"><ele>7.000000000000001</ele><time>2026-03-30T16:13:35.746Z</time></trkpt><trkpt lat="43.9047341" lon="12.8950679"><ele>7.0</ele><time>2026-03-30T16:13:38.743Z</time></trkpt><trkpt lat="43.9046956" lon="12.8949726"><ele>7.000000000000001</ele><time>2026-03-30T16:13:41.752Z</time></trkpt><trkpt lat="43.9046364" lon="12.894884"><ele>7.0</ele><time>2026-03-30T16:13:44.742Z</time></trkpt><trkpt lat="43.9045777" lon="12.8948172"><ele>7.0</ele><time>2026-03-30T16:13:47.743Z</time></trkpt><trkpt lat="43.9045214" lon="12.8947515"><ele>7.0</ele><time>2026-03-30T16:13:50.743Z</time></trkpt><trkpt lat="43.9044685" lon="12.8946863"><ele>7.000000000000001</ele><time>2026-03-30T16:13:53.737Z</time></trkpt><trkpt lat="43.9044094" lon="12.8946164"><ele>7.0</ele><time>2026-03-30T16:13:56.731Z</time></trkpt><trkpt lat="43.9043491" lon="12.8945413"><ele>7.000000000000001</ele><time>2026-03-30T16:13:59.74Z</time></trkpt><trkpt lat="43.9042898" lon="12.8944717"><ele>7.0</ele><time>2026-03-30T16:14:02.751Z</time></trkpt><trkpt lat="43.9042257" lon="12.8943894"><ele>7.0</ele><time>2026-03-30T16:14:05.745Z</time></trkpt><trkpt lat="43.9041697" lon="12.8943042"><ele>7.0</ele><time>2026-03-30T16:14:08.738Z</time></trkpt><trkpt lat="43.9041154" lon="12.8942206"><ele>7.000000000000001</ele><time>2026-03-30T16:14:11.761Z</time></trkpt><trkpt lat="43.9040605" lon="12.8941455"><ele>7.0</ele><time>2026-03-30T16:14:14.741Z</time></trkpt><trkpt lat="43.904001" lon="12.894064"><ele>6.714285714285714</ele><time>2026-03-30T16:14:17.746Z</time></trkpt><trkpt lat="43.9039511" lon="12.8939725"><ele>6.428571428571429</ele><time>2026-03-30T16:14:20.748Z</time></trkpt><trkpt lat="43.9039003" lon="12.8938935"><ele>6.142857142857142</ele><time>2026-03-30T16:14:23.747Z</time></trkpt><trkpt lat="43.903847" lon="12.8938464"><ele>5.857142857142858</ele><time>2026-03-30T16:14:26.742Z</time></trkpt><trkpt lat="43.9037955" lon="12.8937879"><ele>5.571428571428571</ele><time>2026-03-30T16:14:29.748Z</time></trkpt><trkpt lat="43.903736" lon="12.8937214"><ele>5.285714285714286</ele><time>2026-03-30T16:14:32.732Z</time></trkpt><trkpt lat="43.9036764" lon="12.8936435"><ele>5.0</ele><time>2026-03-30T16:14:35.732Z</time></trkpt><trkpt lat="43.9036167" lon="12.8935816"><ele>5.0</ele><time>2026-03-30T16:14:38.731Z</time></trkpt><trkpt lat="43.903539" lon="12.8936009"><ele>5.0</ele><time>2026-03-30T16:14:41.735Z</time></trkpt><trkpt lat="43.9034921" lon="12.8936635"><ele>5.0</ele><time>2026-03-30T16:14:43.738Z</time></trkpt><trkpt lat="43.9034388" lon="12.8937639"><ele>5.0</ele><time>2026-03-30T16:14:46.733Z</time></trkpt><trkpt lat="43.9033863" lon="12.8938558"><ele>5.0</ele><time>2026-03-30T16:14:49.732Z</time></trkpt><trkpt lat="43.9033267" lon="12.8939345"><ele>5.0</ele><time>2026-03-30T16:14:52.723Z</time></trkpt><trkpt lat="43.9032915" lon="12.8940072"><ele>4.666666666666667</ele><time>2026-03-30T16:14:54.727Z</time></trkpt><trkpt lat="43.9032291" lon="12.8940976"><ele>4.333333333333334</ele><time>2026-03-30T16:14:57.731Z</time></trkpt><trkpt lat="43.9031703" lon="12.8941756"><ele>4.0</ele><time>2026-03-30T16:15:00.738Z</time></trkpt><trkpt lat="43.9031194" lon="12.894234"><ele>3.666666666666667</ele><time>2026-03-30T16:15:03.729Z</time></trkpt><trkpt lat="43.9030687" lon="12.8943046"><ele>3.3333333333333335</ele><time>2026-03-30T16:15:06.733Z</time></trkpt><trkpt lat="43.9030134" lon="12.8943909"><ele>3.0</ele><time>2026-03-30T16:15:09.736Z</time></trkpt><trkpt lat="43.9029557" lon="12.8944797"><ele>2.8333333333333335</ele><time>2026-03-30T16:15:12.726Z</time></trkpt><trkpt lat="43.9028991" lon="12.8945571"><ele>2.6666666666666665</ele><time>2026-03-30T16:15:15.714Z</time></trkpt><trkpt lat="43.9028478" lon="12.8946414"><ele>2.5</ele><time>2026-03-30T16:15:18.727Z</time></trkpt><trkpt lat="43.9028103" lon="12.8947407"><ele>2.333333333333333</ele><time>2026-03-30T16:15:21.725Z</time></trkpt><trkpt lat="43.9027828" lon="12.8948219"><ele>2.1666666666666665</ele><time>2026-03-30T16:15:23.732Z</time></trkpt><trkpt lat="43.9027666" lon="12.8949108"><ele>2.0</ele><time>2026-03-30T16:15:25.73Z</time></trkpt><trkpt lat="43.9027782" lon="12.895024"><ele>1.9999999999999998</ele><time>2026-03-30T16:15:28.738Z</time></trkpt><trkpt lat="43.9028243" lon="12.895084"><ele>2.0</ele><time>2026-03-30T16:15:31.737Z</time></trkpt><trkpt lat="43.9028777" lon="12.8951334"><ele>2.0</ele><time>2026-03-30T16:15:34.727Z</time></trkpt><trkpt lat="43.9029357" lon="12.8951988"><ele>2.0</ele><time>2026-03-30T16:15:37.73Z</time></trkpt><trkpt lat="43.9030066" lon="12.8952706"><ele>1.9999999999999998</ele><time>2026-03-30T16:15:40.737Z</time></trkpt><trkpt lat="43.9030758" lon="12.8953173"><ele>2.0</ele><time>2026-03-30T16:15:43.736Z</time></trkpt><trkpt lat="43.9031596" lon="12.8953881"><ele>2.5</ele><time>2026-03-30T16:15:46.726Z</time></trkpt><trkpt lat="43.9032019" lon="12.8954541"><ele>3.0</ele><time>2026-03-30T16:15:48.733Z</time></trkpt><trkpt lat="43.903251" lon="12.8955283"><ele>3.5</ele><time>2026-03-30T16:15:51.734Z</time></trkpt><trkpt lat="43.9033119" lon="12.8956044"><ele>4.0</ele><time>2026-03-30T16:15:54.723Z</time></trkpt><trkpt lat="43.9033716" lon="12.8956824"><ele>4.5</ele><time>2026-03-30T16:15:57.728Z</time></trkpt><trkpt lat="43.9034127" lon="12.8957872"><ele>5.0</ele><time>2026-03-30T16:16:01.726Z</time></trkpt><trkpt lat="43.9034326" lon="12.895874"><ele>5.285714285714286</ele><time>2026-03-30T16:16:05.72Z</time></trkpt><trkpt lat="43.9034885" lon="12.8959301"><ele>5.571428571428571</ele><time>2026-03-30T16:16:09.729Z</time></trkpt><trkpt lat="43.9035607" lon="12.8959478"><ele>5.857142857142858</ele><time>2026-03-30T16:16:11.726Z</time></trkpt><trkpt lat="43.9036301" lon="12.8959662"><ele>6.142857142857142</ele><time>2026-03-30T16:16:13.722Z</time></trkpt><trkpt lat="43.9037007" lon="12.8959778"><ele>6.428571428571429</ele><time>2026-03-30T16:16:15.739Z</time></trkpt><trkpt lat="43.9037806" lon="12.8959747"><ele>6.714285714285714</ele><time>2026-03-30T16:16:17.723Z</time></trkpt><trkpt lat="43.9038481" lon="12.8959791"><ele>7.0</ele><time>2026-03-30T16:16:19.729Z</time></trkpt><trkpt lat="43.9039262" lon="12.8959849"><ele>7.000000000000001</ele><time>2026-03-30T16:16:21.727Z</time></trkpt><trkpt lat="43.9040046" lon="12.8960018"><ele>7.0</ele><time>2026-03-30T16:16:24.729Z</time></trkpt><trkpt lat="43.9040783" lon="12.8959786"><ele>7.0</ele><time>2026-03-30T16:16:27.726Z</time></trkpt><trkpt lat="43.9041514" lon="12.8959272"><ele>7.0</ele><time>2026-03-30T16:16:30.73Z</time></trkpt><trkpt lat="43.9042277" lon="12.8958979"><ele>7.000000000000001</ele><time>2026-03-30T16:16:33.73Z</time></trkpt><trkpt lat="43.9043061" lon="12.8958515"><ele>7.0</ele><time>2026-03-30T16:16:36.73Z</time></trkpt><trkpt lat="43.9043762" lon="12.8957852"><ele>7.166666666666667</ele><time>2026-03-30T16:16:39.726Z</time></trkpt><trkpt lat="43.9044356" lon="12.8956953"><ele>7.333333333333334</ele><time>2026-03-30T16:16:42.723Z</time></trkpt><trkpt lat="43.9044933" lon="12.895606"><ele>7.5</ele><time>2026-03-30T16:16:45.717Z</time></trkpt><trkpt lat="43.904551" lon="12.8955362"><ele>7.666666666666666</ele><time>2026-03-30T16:16:48.708Z</time></trkpt><trkpt lat="43.9045996" lon="12.8954704"><ele>7.833333333333333</ele><time>2026-03-30T16:16:50.712Z</time></trkpt><trkpt lat="43.9046491" lon="12.8954077"><ele>8.0</ele><time>2026-03-30T16:16:52.715Z</time></trkpt><trkpt lat="43.9047118" lon="12.8953676"><ele>7.999999999999999</ele><time>2026-03-30T16:16:54.711Z</time></trkpt><trkpt lat="43.9047607" lon="12.8952769"><ele>8.0</ele><time>2026-03-30T16:16:57.718Z</time></trkpt><trkpt lat="43.9047736" lon="12.8951481"><ele>8.0</ele><time>2026-03-30T16:17:00.722Z</time></trkpt><trkpt lat="43.9047583" lon="12.8950625"><ele>8.0</ele><time>2026-03-30T16:17:02.716Z</time></trkpt><trkpt lat="43.9047265" lon="12.894957"><ele>7.999999999999999</ele><time>2026-03-30T16:17:05.721Z</time></trkpt><trkpt lat="43.9046694" lon="12.894889"><ele>8.0</ele><time>2026-03-30T16:17:08.715Z</time></trkpt><trkpt lat="43.9046005" lon="12.8948269"><ele>7.833333333333333</ele><time>2026-03-30T16:17:11.716Z</time></trkpt><trkpt lat="43.9045361" lon="12.8947558"><ele>7.666666666666666</ele><time>2026-03-30T16:17:14.733Z</time></trkpt><trkpt lat="43.9044748" lon="12.8946872"><ele>7.5</ele><time>2026-03-30T16:17:17.737Z</time></trkpt><trkpt lat="43.9044103" lon="12.8946131"><ele>7.333333333333334</ele><time>2026-03-30T16:17:20.704Z</time></trkpt><trkpt lat="43.9043402" lon="12.8945187"><ele>7.166666666666667</ele><time>2026-03-30T16:17:23.698Z</time></trkpt><trkpt lat="43.9042721" lon="12.8944545"><ele>7.0</ele><time>2026-03-30T16:17:26.698Z</time></trkpt><trkpt lat="43.9042082" lon="12.8943756"><ele>6.857142857142857</ele><time>2026-03-30T16:17:29.71Z</time></trkpt><trkpt lat="43.9041632" lon="12.8943143"><ele>6.714285714285714</ele><time>2026-03-30T16:17:31.707Z</time></trkpt><trkpt lat="43.9041289" lon="12.8942161"><ele>6.571428571428571</ele><time>2026-03-30T16:17:34.695Z</time></trkpt><trkpt lat="43.9040976" lon="12.89412"><ele>6.428571428571429</ele><time>2026-03-30T16:17:37.698Z</time></trkpt><trkpt lat="43.9040351" lon="12.8940666"><ele>6.285714285714286</ele><time>2026-03-30T16:17:40.702Z</time></trkpt><trkpt lat="43.9039759" lon="12.8939952"><ele>6.142857142857142</ele><time>2026-03-30T16:17:43.701Z</time></trkpt><trkpt lat="43.9039185" lon="12.8939274"><ele>6.0</ele><time>2026-03-30T16:17:46.707Z</time></trkpt><trkpt lat="43.9038558" lon="12.8938453"><ele>5.857142857142857</ele><time>2026-03-30T16:17:49.719Z</time></trkpt><trkpt lat="43.9038061" lon="12.8937912"><ele>5.714285714285714</ele><time>2026-03-30T16:17:51.714Z</time></trkpt><trkpt lat="43.9037547" lon="12.8937331"><ele>5.571428571428571</ele><time>2026-03-30T16:17:53.702Z</time></trkpt><trkpt lat="43.90368" lon="12.8936512"><ele>5.428571428571429</ele><time>2026-03-30T16:17:56.703Z</time></trkpt><trkpt lat="43.9036076" lon="12.8935965"><ele>5.285714285714286</ele><time>2026-03-30T16:17:58.712Z</time></trkpt><trkpt lat="43.903541" lon="12.8936081"><ele>5.142857142857142</ele><time>2026-03-30T16:18:00.709Z</time></trkpt><trkpt lat="43.9034914" lon="12.893665"><ele>5.0</ele><time>2026-03-30T16:18:02.706Z</time></trkpt><trkpt lat="43.9034416" lon="12.8937567"><ele>4.666666666666667</ele><time>2026-03-30T16:18:05.71Z</time></trkpt><trkpt lat="43.9033812" lon="12.893846"><ele>4.333333333333334</ele><time>2026-03-30T16:18:08.71Z</time></trkpt><trkpt lat="43.9033406" lon="12.8939193"><ele>4.0</ele><time>2026-03-30T16:18:10.706Z</time></trkpt><trkpt lat="43.9032815" lon="12.8939934"><ele>3.666666666666667</ele><time>2026-03-30T16:18:13.711Z</time></trkpt><trkpt lat="43.903224" lon="12.8940792"><ele>3.3333333333333335</ele><time>2026-03-30T16:18:16.708Z</time></trkpt><trkpt lat="43.9031732" lon="12.8941451"><ele>3.0</ele><time>2026-03-30T16:18:19.725Z</time></trkpt><trkpt lat="43.9031327" lon="12.8942175"><ele>2.8333333333333335</ele><time>2026-03-30T16:18:22.71Z</time></trkpt><trkpt lat="43.9030756" lon="12.8942965"><ele>2.6666666666666665</ele><time>2026-03-30T16:18:25.716Z</time></trkpt><trkpt lat="43.9030223" lon="12.8943583"><ele>2.5</ele><time>2026-03-30T16:18:28.696Z</time></trkpt><trkpt lat="43.902973" lon="12.8944417"><ele>2.333333333333333</ele><time>2026-03-30T16:18:31.705Z</time></trkpt><trkpt lat="43.9029165" lon="12.8945242"><ele>2.1666666666666665</ele><time>2026-03-30T16:18:34.699Z</time></trkpt><trkpt lat="43.9028721" lon="12.8946289"><ele>2.0</ele><time>2026-03-30T16:18:37.71Z</time></trkpt><trkpt lat="43.9028348" lon="12.8947403"><ele>1.9999999999999998</ele><time>2026-03-30T16:18:40.713Z</time></trkpt><trkpt lat="43.9028126" lon="12.8948462"><ele>2.0</ele><time>2026-03-30T16:18:43.709Z</time></trkpt><trkpt lat="43.9028257" lon="12.8949505"><ele>2.0</ele><time>2026-03-30T16:18:46.709Z</time></trkpt><trkpt lat="43.9028769" lon="12.8950361"><ele>2.0</ele><time>2026-03-30T16:18:49.696Z</time></trkpt><trkpt lat="43.9029369" lon="12.8951239"><ele>1.9999999999999998</ele><time>2026-03-30T16:18:52.705Z</time></trkpt><trkpt lat="43.9030011" lon="12.8951994"><ele>2.0</ele><time>2026-03-30T16:18:55.705Z</time></trkpt><trkpt lat="43.9030634" lon="12.8952517"><ele>2.4285714285714284</ele><time>2026-03-30T16:18:57.71Z</time></trkpt><trkpt lat="43.9031211" lon="12.8952987"><ele>2.8571428571428568</ele><time>2026-03-30T16:18:59.707Z</time></trkpt><trkpt lat="43.9031717" lon="12.8953705"><ele>3.2857142857142856</ele><time>2026-03-30T16:19:02.702Z</time></trkpt><trkpt lat="43.9032122" lon="12.8954663"><ele>3.7142857142857144</ele><time>2026-03-30T16:19:05.711Z</time></trkpt><trkpt lat="43.9032544" lon="12.8955447"><ele>4.142857142857143</ele><time>2026-03-30T16:19:08.712Z</time></trkpt><trkpt lat="43.9032998" lon="12.8956156"><ele>4.571428571428571</ele><time>2026-03-30T16:19:11.711Z</time></trkpt><trkpt lat="43.9033496" lon="12.8957093"><ele>5.0</ele><time>2026-03-30T16:19:14.711Z</time></trkpt><trkpt lat="43.9034067" lon="12.8958038"><ele>5.333333333333334</ele><time>2026-03-30T16:19:17.71Z</time></trkpt><trkpt lat="43.9034583" lon="12.8958622"><ele>5.666666666666667</ele><time>2026-03-30T16:19:19.707Z</time></trkpt><trkpt lat="43.9035295" lon="12.8959383"><ele>6.0</ele><time>2026-03-30T16:19:22.719Z</time></trkpt><trkpt lat="43.9036098" lon="12.8959885"><ele>6.333333333333334</ele><time>2026-03-30T16:19:25.713Z</time></trkpt><trkpt lat="43.9036936" lon="12.8960003"><ele>6.666666666666667</ele><time>2026-03-30T16:19:28.711Z</time></trkpt><trkpt lat="43.9037805" lon="12.8959975"><ele>7.0</ele><time>2026-03-30T16:19:31.709Z</time></trkpt><trkpt lat="43.9038664" lon="12.8960111"><ele>7.000000000000001</ele><time>2026-03-30T16:19:34.711Z</time></trkpt><trkpt lat="43.9039476" lon="12.8960473"><ele>7.0</ele><time>2026-03-30T16:19:37.717Z</time></trkpt><trkpt lat="43.9040365" lon="12.8960594"><ele>7.0</ele><time>2026-03-30T16:19:40.714Z</time></trkpt><trkpt lat="43.904116" lon="12.896046"><ele>7.0</ele><time>2026-03-30T16:19:43.713Z</time></trkpt><trkpt lat="43.9041877" lon="12.8959712"><ele>7.000000000000001</ele><time>2026-03-30T16:19:46.717Z</time></trkpt><trkpt lat="43.9042387" lon="12.8959093"><ele>7.0</ele><time>2026-03-30T16:19:48.715Z</time></trkpt><trkpt lat="43.9043022" lon="12.8958408"><ele>7.142857142857142</ele><time>2026-03-30T16:19:51.712Z</time></trkpt><trkpt lat="43.9043609" lon="12.8957709"><ele>7.285714285714286</ele><time>2026-03-30T16:19:54.717Z</time></trkpt><trkpt lat="43.9044206" lon="12.8956859"><ele>7.428571428571429</ele><time>2026-03-30T16:19:57.718Z</time></trkpt><trkpt lat="43.9044732" lon="12.8956206"><ele>7.571428571428571</ele><time>2026-03-30T16:19:59.717Z</time></trkpt><trkpt lat="43.9045191" lon="12.8955469"><ele>7.7142857142857135</ele><time>2026-03-30T16:20:01.722Z</time></trkpt><trkpt lat="43.9045703" lon="12.8954897"><ele>7.857142857142857</ele><time>2026-03-30T16:20:03.722Z</time></trkpt><trkpt lat="43.9046333" lon="12.895436"><ele>8.0</ele><time>2026-03-30T16:20:05.722Z</time></trkpt><trkpt lat="43.904706" lon="12.8953634"><ele>7.999999999999999</ele><time>2026-03-30T16:20:08.714Z</time></trkpt><trkpt lat="43.9047448" lon="12.8952501"><ele>8.0</ele><time>2026-03-30T16:20:11.706Z</time></trkpt><trkpt lat="43.9047464" lon="12.8951255"><ele>8.0</ele><time>2026-03-30T16:20:14.707Z</time></trkpt><trkpt lat="43.9047296" lon="12.8950324"><ele>8.0</ele><time>2026-03-30T16:20:17.711Z</time></trkpt><trkpt lat="43.9046972" lon="12.8949532"><ele>7.999999999999999</ele><time>2026-03-30T16:20:19.721Z</time></trkpt><trkpt lat="43.9046311" lon="12.894868"><ele>8.0</ele><time>2026-03-30T16:20:22.722Z</time></trkpt><trkpt lat="43.9045595" lon="12.8948028"><ele>7.833333333333333</ele><time>2026-03-30T16:20:25.709Z</time></trkpt><trkpt lat="43.9044986" lon="12.8947372"><ele>7.666666666666666</ele><time>2026-03-30T16:20:28.713Z</time></trkpt><trkpt lat="43.9044389" lon="12.894668"><ele>7.5</ele><time>2026-03-30T16:20:31.709Z</time></trkpt><trkpt lat="43.9043749" lon="12.894584"><ele>7.333333333333334</ele><time>2026-03-30T16:20:34.711Z</time></trkpt><trkpt lat="43.9043196" lon="12.8944966"><ele>7.166666666666667</ele><time>2026-03-30T16:20:37.712Z</time></trkpt><trkpt lat="43.9042598" lon="12.8944048"><ele>7.0</ele><time>2026-03-30T16:20:40.709Z</time></trkpt><trkpt lat="43.9042144" lon="12.8943222"><ele>6.666666666666667</ele><time>2026-03-30T16:20:43.715Z</time></trkpt><trkpt lat="43.9041558" lon="12.8942395"><ele>6.333333333333334</ele><time>2026-03-30T16:20:46.718Z</time></trkpt><trkpt lat="43.9041076" lon="12.8941828"><ele>6.0</ele><time>2026-03-30T16:20:48.716Z</time></trkpt><trkpt lat="43.9040421" lon="12.8940994"><ele>5.666666666666667</ele><time>2026-03-30T16:20:51.715Z</time></trkpt><trkpt lat="43.9039773" lon="12.8940168"><ele>5.333333333333334</ele><time>2026-03-30T16:20:54.732Z</time></trkpt><trkpt lat="43.9039208" lon="12.8939442"><ele>5.0</ele><time>2026-03-30T16:20:57.721Z</time></trkpt><trkpt lat="43.9038743" lon="12.8938785"><ele>5.0</ele><time>2026-03-30T16:21:00.713Z</time></trkpt><trkpt lat="43.9038127" lon="12.8938122"><ele>5.0</ele><time>2026-03-30T16:21:03.714Z</time></trkpt><trkpt lat="43.9037514" lon="12.893724"><ele>5.0</ele><time>2026-03-30T16:21:06.714Z</time></trkpt><trkpt lat="43.9036922" lon="12.8936455"><ele>5.0</ele><time>2026-03-30T16:21:09.715Z</time></trkpt><trkpt lat="43.9036125" lon="12.893602"><ele>5.0</ele><time>2026-03-30T16:21:12.699Z</time></trkpt><trkpt lat="43.9035285" lon="12.8936618"><ele>5.0</ele><time>2026-03-30T16:21:15.703Z</time></trkpt><trkpt lat="43.9034807" lon="12.8937263"><ele>5.0</ele><time>2026-03-30T16:21:17.703Z</time></trkpt><trkpt lat="43.9034189" lon="12.8938201"><ele>5.0</ele><time>2026-03-30T16:21:20.71Z</time></trkpt><trkpt lat="43.9033468" lon="12.8938879"><ele>5.0</ele><time>2026-03-30T16:21:23.713Z</time></trkpt><trkpt lat="43.9032826" lon="12.8939772"><ele>5.0</ele><time>2026-03-30T16:21:26.722Z</time></trkpt><trkpt lat="43.9032277" lon="12.8940568"><ele>5.0</ele><time>2026-03-30T16:21:29.701Z</time></trkpt><trkpt lat="43.9031738" lon="12.8941298"><ele>5.0</ele><time>2026-03-30T16:21:32.711Z</time></trkpt><trkpt lat="43.9031222" lon="12.8942021"><ele>4.5</ele><time>2026-03-30T16:21:35.708Z</time></trkpt><trkpt lat="43.9030529" lon="12.8942913"><ele>4.0</ele><time>2026-03-30T16:21:38.714Z</time></trkpt><trkpt lat="43.9029945" lon="12.8943748"><ele>3.5</ele><time>2026-03-30T16:21:41.708Z</time></trkpt><trkpt lat="43.9029357" lon="12.8944492"><ele>3.0</ele><time>2026-03-30T16:21:44.697Z</time></trkpt><trkpt lat="43.9028729" lon="12.8945212"><ele>2.5</ele><time>2026-03-30T16:21:47.71Z</time></trkpt><trkpt lat="43.9028247" lon="12.8946167"><ele>2.0</ele><time>2026-03-30T16:21:50.708Z</time></trkpt><trkpt lat="43.9027753" lon="12.8947236"><ele>2.0</ele><time>2026-03-30T16:21:53.698Z</time></trkpt><trkpt lat="43.9027591" lon="12.8948131"><ele>1.9999999999999998</ele><time>2026-03-30T16:21:55.705Z</time></trkpt><trkpt lat="43.902765" lon="12.8949048"><ele>2.0</ele><time>2026-03-30T16:21:57.711Z</time></trkpt><trkpt lat="43.9027959" lon="12.8949844"><ele>2.0</ele><time>2026-03-30T16:21:59.689Z</time></trkpt><trkpt lat="43.9028431" lon="12.895045"><ele>1.9999999999999998</ele><time>2026-03-30T16:22:01.705Z</time></trkpt><trkpt lat="43.9028932" lon="12.895099"><ele>2.0</ele><time>2026-03-30T16:22:03.71Z</time></trkpt><trkpt lat="43.9029437" lon="12.8951533"><ele>2.0</ele><time>2026-03-30T16:22:05.704Z</time></trkpt><trkpt lat="43.9030125" lon="12.8952466"><ele>2.4285714285714284</ele><time>2026-03-30T16:22:08.706Z</time></trkpt><trkpt lat="43.9030725" lon="12.8953031"><ele>2.8571428571428568</ele><time>2026-03-30T16:22:10.706Z</time></trkpt><trkpt lat="43.9031199" lon="12.8953635"><ele>3.2857142857142856</ele><time>2026-03-30T16:22:12.702Z</time></trkpt><trkpt lat="43.9031774" lon="12.8954421"><ele>3.7142857142857144</ele><time>2026-03-30T16:22:15.71Z</time></trkpt><trkpt lat="43.9032237" lon="12.8955156"><ele>4.142857142857143</ele><time>2026-03-30T16:22:18.702Z</time></trkpt><trkpt lat="43.9032743" lon="12.8956022"><ele>4.571428571428571</ele><time>2026-03-30T16:22:21.702Z</time></trkpt><trkpt lat="43.9033176" lon="12.8956753"><ele>5.0</ele><time>2026-03-30T16:22:23.701Z</time></trkpt><trkpt lat="43.9033611" lon="12.895743"><ele>5.333333333333334</ele><time>2026-03-30T16:22:25.706Z</time></trkpt><trkpt lat="43.9034288" lon="12.8958163"><ele>5.666666666666667</ele><time>2026-03-30T16:22:28.703Z</time></trkpt><trkpt lat="43.9034878" lon="12.8958772"><ele>6.0</ele><time>2026-03-30T16:22:31.701Z</time></trkpt><trkpt lat="43.9035619" lon="12.895933"><ele>6.333333333333334</ele><time>2026-03-30T16:22:34.695Z</time></trkpt><trkpt lat="43.903619" lon="12.8959757"><ele>6.666666666666667</ele><time>2026-03-30T16:22:36.69Z</time></trkpt><trkpt lat="43.9036963" lon="12.8959961"><ele>7.0</ele><time>2026-03-30T16:22:39.693Z</time></trkpt><trkpt lat="43.903761" lon="12.8959884"><ele>7.000000000000001</ele><time>2026-03-30T16:22:41.695Z</time></trkpt><trkpt lat="43.9038555" lon="12.8959824"><ele>7.0</ele><time>2026-03-30T16:22:44.699Z</time></trkpt><trkpt lat="43.9039203" lon="12.8959956"><ele>7.0</ele><time>2026-03-30T16:22:46.701Z</time></trkpt><trkpt lat="43.9039873" lon="12.896006"><ele>7.0</ele><time>2026-03-30T16:22:48.697Z</time></trkpt><trkpt lat="43.9040817" lon="12.8960109"><ele>7.000000000000001</ele><time>2026-03-30T16:22:51.696Z</time></trkpt><trkpt lat="43.9041704" lon="12.8959702"><ele>7.0</ele><time>2026-03-30T16:22:54.702Z</time></trkpt><trkpt lat="43.9042311" lon="12.8959313"><ele>7.166666666666667</ele><time>2026-03-30T16:22:56.697Z</time></trkpt><trkpt lat="43.9042871" lon="12.8958873"><ele>7.333333333333334</ele><time>2026-03-30T16:22:58.715Z</time></trkpt><trkpt lat="43.9043636" lon="12.8958224"><ele>7.5</ele><time>2026-03-30T16:23:01.707Z</time></trkpt><trkpt lat="43.9044416" lon="12.895747"><ele>7.666666666666666</ele><time>2026-03-30T16:23:04.704Z</time></trkpt><trkpt lat="43.90449" lon="12.895678"><ele>7.833333333333333</ele><time>2026-03-30T16:23:06.693Z</time></trkpt><trkpt lat="43.9045365" lon="12.895616"><ele>8.0</ele><time>2026-03-30T16:23:08.705Z</time></trkpt><trkpt lat="43.9045986" lon="12.8955266"><ele>7.999999999999999</ele><time>2026-03-30T16:23:11.71Z</time></trkpt><trkpt lat="43.9046433" lon="12.8954637"><ele>8.0</ele><time>2026-03-30T16:23:13.705Z</time></trkpt><trkpt lat="43.9046909" lon="12.8954045"><ele>8.0</ele><time>2026-03-30T16:23:15.702Z</time></trkpt><trkpt lat="43.9047393" lon="12.8952927"><ele>8.0</ele><time>2026-03-30T16:23:18.706Z</time></trkpt><trkpt lat="43.9047547" lon="12.8952075"><ele>7.999999999999999</ele><time>2026-03-30T16:23:20.7Z</time></trkpt><trkpt lat="43.9047457" lon="12.8950944"><ele>8.0</ele><time>2026-03-30T16:23:23.701Z</time></trkpt><trkpt lat="43.9047053" lon="12.894985"><ele>7.833333333333333</ele><time>2026-03-30T16:23:26.701Z</time></trkpt><trkpt lat="43.9046428" lon="12.8948997"><ele>7.666666666666666</ele><time>2026-03-30T16:23:29.715Z</time></trkpt><trkpt lat="43.9045945" lon="12.8948362"><ele>7.5</ele><time>2026-03-30T16:23:31.695Z</time></trkpt><trkpt lat="43.904546" lon="12.8947771"><ele>7.333333333333334</ele><time>2026-03-30T16:23:33.694Z</time></trkpt><trkpt lat="43.9044769" lon="12.8946983"><ele>7.166666666666667</ele><time>2026-03-30T16:23:36.7Z</time></trkpt><trkpt lat="43.9044142" lon="12.8946163"><ele>7.0</ele><time>2026-03-30T16:23:39.695Z</time></trkpt><trkpt lat="43.9043482" lon="12.8945299"><ele>7.000000000000001</ele><time>2026-03-30T16:23:42.704Z</time></trkpt><trkpt lat="43.9042806" lon="12.894448"><ele>7.0</ele><time>2026-03-30T16:23:45.698Z</time></trkpt><trkpt lat="43.904217" lon="12.8943728"><ele>7.0</ele><time>2026-03-30T16:23:48.705Z</time></trkpt><trkpt lat="43.9041588" lon="12.8942928"><ele>7.0</ele><time>2026-03-30T16:23:51.701Z</time></trkpt><trkpt lat="43.9040924" lon="12.894199"><ele>7.000000000000001</ele><time>2026-03-30T16:23:54.708Z</time></trkpt><trkpt lat="43.9040264" lon="12.8941074"><ele>7.0</ele><time>2026-03-30T16:23:57.703Z</time></trkpt><trkpt lat="43.9039859" lon="12.8940394"><ele>6.666666666666667</ele><time>2026-03-30T16:23:59.692Z</time></trkpt><trkpt lat="43.9039335" lon="12.8939605"><ele>6.333333333333334</ele><time>2026-03-30T16:24:02.687Z</time></trkpt><trkpt lat="43.9038563" lon="12.8938959"><ele>6.0</ele><time>2026-03-30T16:24:05.695Z</time></trkpt><trkpt lat="43.9037938" lon="12.8938045"><ele>5.666666666666667</ele><time>2026-03-30T16:24:08.702Z</time></trkpt><trkpt lat="43.9037377" lon="12.893712"><ele>5.333333333333334</ele><time>2026-03-30T16:24:11.701Z</time></trkpt><trkpt lat="43.9036841" lon="12.8936139"><ele>5.0</ele><time>2026-03-30T16:24:14.699Z</time></trkpt><trkpt lat="43.9036135" lon="12.8935692"><ele>5.0</ele><time>2026-03-30T16:24:17.701Z</time></trkpt><trkpt lat="43.903545" lon="12.8936255"><ele>5.0</ele><time>2026-03-30T16:24:20.696Z</time></trkpt><trkpt lat="43.9034907" lon="12.8937212"><ele>5.0</ele><time>2026-03-30T16:24:23.697Z</time></trkpt><trkpt lat="43.9034265" lon="12.8938092"><ele>5.0</ele><time>2026-03-30T16:24:26.69Z</time></trkpt><trkpt lat="43.9033765" lon="12.89387"><ele>5.0</ele><time>2026-03-30T16:24:28.691Z</time></trkpt><trkpt lat="43.9033279" lon="12.8939412"><ele>5.0</ele><time>2026-03-30T16:24:30.693Z</time></trkpt><trkpt lat="43.9032793" lon="12.894004"><ele>4.666666666666667</ele><time>2026-03-30T16:24:32.717Z</time></trkpt><trkpt lat="43.9032256" lon="12.8940909"><ele>4.333333333333334</ele><time>2026-03-30T16:24:35.694Z</time></trkpt><trkpt lat="43.9031722" lon="12.8941686"><ele>4.0</ele><time>2026-03-30T16:24:38.699Z</time></trkpt><trkpt lat="43.9031033" lon="12.894245"><ele>3.666666666666667</ele><time>2026-03-30T16:24:41.694Z</time></trkpt><trkpt lat="43.903037" lon="12.8943268"><ele>3.3333333333333335</ele><time>2026-03-30T16:24:44.686Z</time></trkpt><trkpt lat="43.9029792" lon="12.8944006"><ele>3.0</ele><time>2026-03-30T16:24:47.691Z</time></trkpt><trkpt lat="43.902931" lon="12.8944849"><ele>2.8333333333333335</ele><time>2026-03-30T16:24:50.689Z</time></trkpt><trkpt lat="43.9028791" lon="12.8945876"><ele>2.6666666666666665</ele><time>2026-03-30T16:24:53.695Z</time></trkpt><trkpt lat="43.9028459" lon="12.8946646"><ele>2.5</ele><time>2026-03-30T16:24:55.695Z</time></trkpt><trkpt lat="43.9028079" lon="12.8947731"><ele>2.333333333333333</ele><time>2026-03-30T16:24:58.69Z</time></trkpt><trkpt lat="43.9027961" lon="12.8948815"><ele>2.1666666666666665</ele><time>2026-03-30T16:25:01.694Z</time></trkpt><trkpt lat="43.902828" lon="12.8949857"><ele>2.0</ele><time>2026-03-30T16:25:04.692Z</time></trkpt><trkpt lat="43.9028919" lon="12.8950744"><ele>2.5</ele><time>2026-03-30T16:25:07.695Z</time></trkpt><trkpt lat="43.9029469" lon="12.8951315"><ele>3.0</ele><time>2026-03-30T16:25:10.691Z</time></trkpt><trkpt lat="43.9030146" lon="12.8952067"><ele>3.5</ele><time>2026-03-30T16:25:13.692Z</time></trkpt><trkpt lat="43.903066" lon="12.89526"><ele>4.0</ele><time>2026-03-30T16:25:15.684Z</time></trkpt><trkpt lat="43.9031377" lon="12.8953334"><ele>4.5</ele><time>2026-03-30T16:25:18.684Z</time></trkpt><trkpt lat="43.9031836" lon="12.8954247"><ele>5.0</ele><time>2026-03-30T16:25:21.68Z</time></trkpt><trkpt lat="43.9032299" lon="12.895509"><ele>5.0</ele><time>2026-03-30T16:25:24.697Z</time></trkpt><trkpt lat="43.9032838" lon="12.8955911"><ele>5.0</ele><time>2026-03-30T16:25:27.692Z</time></trkpt><trkpt lat="43.9033494" lon="12.8956834"><ele>5.0</ele><time>2026-03-30T16:25:30.689Z</time></trkpt><trkpt lat="43.9034029" lon="12.8957399"><ele>5.0</ele><time>2026-03-30T16:25:32.694Z</time></trkpt><trkpt lat="43.9034755" lon="12.8958129"><ele>5.0</ele><time>2026-03-30T16:25:35.682Z</time></trkpt><trkpt lat="43.9035322" lon="12.8958924"><ele>5.0</ele><time>2026-03-30T16:25:38.684Z</time></trkpt><trkpt lat="43.9036085" lon="12.8959509"><ele>5.285714285714286</ele><time>2026-03-30T16:25:41.682Z</time></trkpt><trkpt lat="43.9036753" lon="12.8960026"><ele>5.571428571428571</ele><time>2026-03-30T16:25:44.694Z</time></trkpt><trkpt lat="43.9037562" lon="12.8960084"><ele>5.857142857142858</ele><time>2026-03-30T16:25:47.687Z</time></trkpt><trkpt lat="43.9038494" lon="12.8959989"><ele>6.142857142857142</ele><time>2026-03-30T16:25:50.693Z</time></trkpt><trkpt lat="43.9039127" lon="12.8960146"><ele>6.428571428571429</ele><time>2026-03-30T16:25:52.691Z</time></trkpt><trkpt lat="43.9039757" lon="12.8960192"><ele>6.714285714285714</ele><time>2026-03-30T16:25:54.684Z</time></trkpt><trkpt lat="43.9040391" lon="12.8960212"><ele>7.0</ele><time>2026-03-30T16:25:56.688Z</time></trkpt><trkpt lat="43.9041237" lon="12.8959927"><ele>7.0</ele><time>2026-03-30T16:25:59.689Z</time></trkpt><trkpt lat="43.9042012" lon="12.8959391"><ele>7.0</ele><time>2026-03-30T16:26:02.69Z</time></trkpt><trkpt lat="43.9042552" lon="12.8958886"><ele>7.0</ele><time>2026-03-30T16:26:04.71Z</time></trkpt><trkpt lat="43.9043121" lon="12.8958437"><ele>7.0</ele><time>2026-03-30T16:26:06.693Z</time></trkpt><trkpt lat="43.9043829" lon="12.8957875"><ele>7.0</ele><time>2026-03-30T16:26:09.695Z</time></trkpt><trkpt lat="43.9044325" lon="12.8957295"><ele>7.0</ele><time>2026-03-30T16:26:11.699Z</time></trkpt><trkpt lat="43.9044786" lon="12.8956684"><ele>7.0</ele><time>2026-03-30T16:26:13.697Z</time></trkpt><trkpt lat="43.9045202" lon="12.8956028"><ele>7.000000000000001</ele><time>2026-03-30T16:26:15.695Z</time></trkpt><trkpt lat="43.9045744" lon="12.8955101"><ele>7.0</ele><time>2026-03-30T16:26:18.698Z</time></trkpt><trkpt lat="43.9046415" lon="12.8954273"><ele>7.0</ele><time>2026-03-30T16:26:21.702Z</time></trkpt><trkpt lat="43.9046835" lon="12.895362"><ele>7.0</ele><time>2026-03-30T16:26:23.695Z</time></trkpt><trkpt lat="43.9047231" lon="12.8952526"><ele>7.000000000000001</ele><time>2026-03-30T16:26:26.701Z</time></trkpt><trkpt lat="43.9047365" lon="12.8951282"><ele>7.0</ele><time>2026-03-30T16:26:29.686Z</time></trkpt><trkpt lat="43.9047132" lon="12.8950289"><ele>7.0</ele><time>2026-03-30T16:26:32.685Z</time></trkpt><trkpt lat="43.9046683" lon="12.894926"><ele>7.0</ele><time>2026-03-30T16:26:35.707Z</time></trkpt><trkpt lat="43.9046201" lon="12.8948634"><ele>7.0</ele><time>2026-03-30T16:26:37.706Z</time></trkpt><trkpt lat="43.9045646" lon="12.894795"><ele>7.0</ele><time>2026-03-30T16:26:39.699Z</time></trkpt><trkpt lat="43.9045127" lon="12.8947312"><ele>7.0</ele><time>2026-03-30T16:26:41.701Z</time></trkpt><trkpt lat="43.9044592" lon="12.8946746"><ele>7.0</ele><time>2026-03-30T16:26:43.7Z</time></trkpt><trkpt lat="43.9044059" lon="12.8946109"><ele>7.0</ele><time>2026-03-30T16:26:45.702Z</time></trkpt><trkpt lat="43.9043535" lon="12.8945461"><ele>7.0</ele><time>2026-03-30T16:26:47.697Z</time></trkpt><trkpt lat="43.9042992" lon="12.8944769"><ele>7.0</ele><time>2026-03-30T16:26:49.702Z</time></trkpt><trkpt lat="43.9042407" lon="12.8944046"><ele>7.0</ele><time>2026-03-30T16:26:51.707Z</time></trkpt><trkpt lat="43.9041911" lon="12.8943299"><ele>7.0</ele><time>2026-03-30T16:26:53.709Z</time></trkpt><trkpt lat="43.9041446" lon="12.8942551"><ele>7.0</ele><time>2026-03-30T16:26:55.705Z</time></trkpt><trkpt lat="43.9040921" lon="12.8941889"><ele>7.0</ele><time>2026-03-30T16:26:57.693Z</time></trkpt><trkpt lat="43.9040385" lon="12.8941218"><ele>7.0</ele><time>2026-03-30T16:26:59.699Z</time></trkpt><trkpt lat="43.9039854" lon="12.8940426"><ele>6.714285714285714</ele><time>2026-03-30T16:27:01.697Z</time></trkpt><trkpt lat="43.9039309" lon="12.8939742"><ele>6.428571428571429</ele><time>2026-03-30T16:27:03.697Z</time></trkpt><trkpt lat="43.9038784" lon="12.893905"><ele>6.142857142857142</ele><time>2026-03-30T16:27:05.7Z</time></trkpt><trkpt lat="43.9038228" lon="12.8938282"><ele>5.857142857142858</ele><time>2026-03-30T16:27:07.705Z</time></trkpt><trkpt lat="43.903771" lon="12.8937507"><ele>5.571428571428571</ele><time>2026-03-30T16:27:09.695Z</time></trkpt><trkpt lat="43.9037178" lon="12.8936858"><ele>5.285714285714286</ele><time>2026-03-30T16:27:11.701Z</time></trkpt><trkpt lat="43.9036692" lon="12.8936202"><ele>5.0</ele><time>2026-03-30T16:27:13.699Z</time></trkpt><trkpt lat="43.9036104" lon="12.8935737"><ele>5.0</ele><time>2026-03-30T16:27:16.698Z</time></trkpt><trkpt lat="43.9035436" lon="12.8936188"><ele>5.0</ele><time>2026-03-30T16:27:19.695Z</time></trkpt><trkpt lat="43.90348" lon="12.8937118"><ele>5.0</ele><time>2026-03-30T16:27:22.694Z</time></trkpt><trkpt lat="43.9034184" lon="12.8938041"><ele>5.0</ele><time>2026-03-30T16:27:25.692Z</time></trkpt><trkpt lat="43.9033546" lon="12.8938857"><ele>5.0</ele><time>2026-03-30T16:27:28.689Z</time></trkpt><trkpt lat="43.9032871" lon="12.8939717"><ele>5.0</ele><time>2026-03-30T16:27:31.691Z</time></trkpt><trkpt lat="43.903228" lon="12.8940491"><ele>4.666666666666667</ele><time>2026-03-30T16:27:34.69Z</time></trkpt><trkpt lat="43.9031682" lon="12.8941244"><ele>4.333333333333334</ele><time>2026-03-30T16:27:37.701Z</time></trkpt><trkpt lat="43.9031191" lon="12.8942121"><ele>4.0</ele><time>2026-03-30T16:27:40.685Z</time></trkpt><trkpt lat="43.9030547" lon="12.89429"><ele>3.666666666666667</ele><time>2026-03-30T16:27:43.685Z</time></trkpt><trkpt lat="43.9029941" lon="12.8943646"><ele>3.3333333333333335</ele><time>2026-03-30T16:27:46.694Z</time></trkpt><trkpt lat="43.9029383" lon="12.8944309"><ele>3.0</ele><time>2026-03-30T16:27:49.691Z</time></trkpt><trkpt lat="43.9028849" lon="12.8945109"><ele>2.8333333333333335</ele><time>2026-03-30T16:27:52.688Z</time></trkpt><trkpt lat="43.902848" lon="12.894585"><ele>2.6666666666666665</ele><time>2026-03-30T16:27:54.692Z</time></trkpt><trkpt lat="43.9028248" lon="12.8946667"><ele>2.5</ele><time>2026-03-30T16:27:56.694Z</time></trkpt><trkpt lat="43.9027919" lon="12.8947773"><ele>2.333333333333333</ele><time>2026-03-30T16:27:59.684Z</time></trkpt><trkpt lat="43.9027839" lon="12.8948997"><ele>2.1666666666666665</ele><time>2026-03-30T16:28:02.684Z</time></trkpt><trkpt lat="43.9028191" lon="12.8949875"><ele>2.0</ele><time>2026-03-30T16:28:04.69Z</time></trkpt><trkpt lat="43.9028691" lon="12.8950651"><ele>2.5</ele><time>2026-03-30T16:28:06.693Z</time></trkpt><trkpt lat="43.9029229" lon="12.89513"><ele>3.0</ele><time>2026-03-30T16:28:08.69Z</time></trkpt><trkpt lat="43.9029803" lon="12.8951901"><ele>3.5</ele><time>2026-03-30T16:28:10.669Z</time></trkpt><trkpt lat="43.9030502" lon="12.8952636"><ele>4.0</ele><time>2026-03-30T16:28:12.669Z</time></trkpt><trkpt lat="43.9031285" lon="12.8953053"><ele>4.5</ele><time>2026-03-30T16:28:14.681Z</time></trkpt><trkpt lat="43.9031756" lon="12.8953818"><ele>5.0</ele><time>2026-03-30T16:28:16.68Z</time></trkpt><trkpt lat="43.9032111" lon="12.8954821"><ele>5.0</ele><time>2026-03-30T16:28:18.663Z</time></trkpt><trkpt lat="43.9032422" lon="12.8955923"><ele>5.0</ele><time>2026-03-30T16:28:20.662Z</time></trkpt><trkpt lat="43.9032942" lon="12.8956609"><ele>5.0</ele><time>2026-03-30T16:28:22.653Z</time></trkpt><trkpt lat="43.9033664" lon="12.8957301"><ele>5.0</ele><time>2026-03-30T16:28:24.662Z</time></trkpt><trkpt lat="43.9034301" lon="12.8958054"><ele>5.0</ele><time>2026-03-30T16:28:26.669Z</time></trkpt><trkpt lat="43.9034799" lon="12.8958596"><ele>5.0</ele><time>2026-03-30T16:28:28.671Z</time></trkpt><trkpt lat="43.9035353" lon="12.8959141"><ele>5.333333333333334</ele><time>2026-03-30T16:28:30.681Z</time></trkpt><trkpt lat="43.9036038" lon="12.8959666"><ele>5.666666666666667</ele><time>2026-03-30T16:28:32.68Z</time></trkpt><trkpt lat="43.9036705" lon="12.8960162"><ele>6.0</ele><time>2026-03-30T16:28:34.676Z</time></trkpt><trkpt lat="43.9037364" lon="12.8960315"><ele>6.333333333333334</ele><time>2026-03-30T16:28:36.686Z</time></trkpt><trkpt lat="43.9038089" lon="12.8960329"><ele>6.666666666666667</ele><time>2026-03-30T16:28:38.678Z</time></trkpt><trkpt lat="43.9038908" lon="12.8960477"><ele>7.0</ele><time>2026-03-30T16:28:40.699Z</time></trkpt><trkpt lat="43.9039671" lon="12.8960519"><ele>7.000000000000001</ele><time>2026-03-30T16:28:42.678Z</time></trkpt><trkpt lat="43.904055" lon="12.896043"><ele>7.0</ele><time>2026-03-30T16:28:45.678Z</time></trkpt><trkpt lat="43.9041351" lon="12.8960178"><ele>7.0</ele><time>2026-03-30T16:28:48.673Z</time></trkpt><trkpt lat="43.9042031" lon="12.895983"><ele>7.0</ele><time>2026-03-30T16:28:51.687Z</time></trkpt><trkpt lat="43.9042647" lon="12.8959314"><ele>7.000000000000001</ele><time>2026-03-30T16:28:54.695Z</time></trkpt><trkpt lat="43.904328" lon="12.8958704"><ele>7.0</ele><time>2026-03-30T16:28:57.688Z</time></trkpt><trkpt lat="43.904395" lon="12.895805"><ele>7.166666666666667</ele><time>2026-03-30T16:29:00.69Z</time></trkpt><trkpt lat="43.9044517" lon="12.8957171"><ele>7.333333333333334</ele><time>2026-03-30T16:29:03.689Z</time></trkpt><trkpt lat="43.90451" lon="12.8956218"><ele>7.5</ele><time>2026-03-30T16:29:06.696Z</time></trkpt><trkpt lat="43.9045712" lon="12.8955405"><ele>7.666666666666666</ele><time>2026-03-30T16:29:09.687Z</time></trkpt><trkpt lat="43.9046227" lon="12.8954747"><ele>7.833333333333333</ele><time>2026-03-30T16:29:11.707Z</time></trkpt><trkpt lat="43.9046896" lon="12.8953941"><ele>8.0</ele><time>2026-03-30T16:29:14.687Z</time></trkpt><trkpt lat="43.9047255" lon="12.8952909"><ele>7.999999999999999</ele><time>2026-03-30T16:29:17.691Z</time></trkpt><trkpt lat="43.9047467" lon="12.8951598"><ele>8.0</ele><time>2026-03-30T16:29:20.686Z</time></trkpt><trkpt lat="43.9047329" lon="12.8950401"><ele>8.0</ele><time>2026-03-30T16:29:23.68Z</time></trkpt><trkpt lat="43.9046971" lon="12.8949424"><ele>8.0</ele><time>2026-03-30T16:29:26.673Z</time></trkpt><trkpt lat="43.9046425" lon="12.8948481"><ele>7.999999999999999</ele><time>2026-03-30T16:29:29.681Z</time></trkpt><trkpt lat="43.9045718" lon="12.8947584"><ele>8.0</ele><time>2026-03-30T16:29:31.678Z</time></trkpt><trkpt lat="43.9045074" lon="12.8946949"><ele>7.857142857142857</ele><time>2026-03-30T16:29:33.683Z</time></trkpt><trkpt lat="43.9044502" lon="12.8946407"><ele>7.7142857142857135</ele><time>2026-03-30T16:29:35.685Z</time></trkpt><trkpt lat="43.9043999" lon="12.8945865"><ele>7.571428571428571</ele><time>2026-03-30T16:29:37.693Z</time></trkpt><trkpt lat="43.9043352" lon="12.8945031"><ele>7.428571428571429</ele><time>2026-03-30T16:29:40.69Z</time></trkpt><trkpt lat="43.9042891" lon="12.8944367"><ele>7.285714285714286</ele><time>2026-03-30T16:29:42.703Z</time></trkpt><trkpt lat="43.9042292" lon="12.8943597"><ele>7.142857142857142</ele><time>2026-03-30T16:29:44.688Z</time></trkpt><trkpt lat="43.9041732" lon="12.8942862"><ele>7.0</ele><time>2026-03-30T16:29:46.697Z</time></trkpt><trkpt lat="43.9041223" lon="12.8942106"><ele>6.666666666666667</ele><time>2026-03-30T16:29:48.688Z</time></trkpt><trkpt lat="43.9040721" lon="12.8941394"><ele>6.333333333333334</ele><time>2026-03-30T16:29:50.686Z</time></trkpt><trkpt lat="43.904021" lon="12.8940628"><ele>6.0</ele><time>2026-03-30T16:29:52.684Z</time></trkpt><trkpt lat="43.9039586" lon="12.8939813"><ele>5.666666666666667</ele><time>2026-03-30T16:29:54.685Z</time></trkpt><trkpt lat="43.9039085" lon="12.8939139"><ele>5.333333333333334</ele><time>2026-03-30T16:29:56.688Z</time></trkpt><trkpt lat="43.9038512" lon="12.8938459"><ele>5.0</ele><time>2026-03-30T16:29:58.69Z</time></trkpt><trkpt lat="43.9037923" lon="12.8937654"><ele>5.0</ele><time>2026-03-30T16:30:00.69Z</time></trkpt><trkpt lat="43.9037332" lon="12.8936965"><ele>5.0</ele><time>2026-03-30T16:30:02.685Z</time></trkpt><trkpt lat="43.9036831" lon="12.8936292"><ele>5.0</ele><time>2026-03-30T16:30:04.677Z</time></trkpt><trkpt lat="43.9036142" lon="12.8935657"><ele>5.0</ele><time>2026-03-30T16:30:07.693Z</time></trkpt><trkpt lat="43.903552" lon="12.8935958"><ele>5.0</ele><time>2026-03-30T16:30:10.686Z</time></trkpt><trkpt lat="43.9034988" lon="12.8936713"><ele>5.0</ele><time>2026-03-30T16:30:13.687Z</time></trkpt><trkpt lat="43.9034405" lon="12.8937563"><ele>4.714285714285714</ele><time>2026-03-30T16:30:16.671Z</time></trkpt><trkpt lat="43.9033993" lon="12.893823"><ele>4.428571428571429</ele><time>2026-03-30T16:30:18.669Z</time></trkpt><trkpt lat="43.9033509" lon="12.8938936"><ele>4.142857142857142</ele><time>2026-03-30T16:30:20.686Z</time></trkpt><trkpt lat="43.9033103" lon="12.8939611"><ele>3.8571428571428568</ele><time>2026-03-30T16:30:22.678Z</time></trkpt><trkpt lat="43.9032491" lon="12.8940412"><ele>3.571428571428571</ele><time>2026-03-30T16:30:25.676Z</time></trkpt><trkpt lat="43.9031973" lon="12.8941035"><ele>3.2857142857142856</ele><time>2026-03-30T16:30:28.675Z</time></trkpt><trkpt lat="43.9031444" lon="12.8941831"><ele>3.0</ele><time>2026-03-30T16:30:31.685Z</time></trkpt><trkpt lat="43.9030909" lon="12.8942625"><ele>2.8333333333333335</ele><time>2026-03-30T16:30:34.68Z</time></trkpt><trkpt lat="43.9030251" lon="12.8943407"><ele>2.6666666666666665</ele><time>2026-03-30T16:30:37.68Z</time></trkpt><trkpt lat="43.9029516" lon="12.89442"><ele>2.5</ele><time>2026-03-30T16:30:40.677Z</time></trkpt><trkpt lat="43.9028816" lon="12.8945083"><ele>2.333333333333333</ele><time>2026-03-30T16:30:43.7Z</time></trkpt><trkpt lat="43.9028473" lon="12.894583"><ele>2.1666666666666665</ele><time>2026-03-30T16:30:45.68Z</time></trkpt><trkpt lat="43.9028117" lon="12.8946584"><ele>2.0</ele><time>2026-03-30T16:30:47.687Z</time></trkpt><trkpt lat="43.9027844" lon="12.8947384"><ele>2.0</ele><time>2026-03-30T16:30:49.684Z</time></trkpt><trkpt lat="43.902776" lon="12.8948259"><ele>1.9999999999999998</ele><time>2026-03-30T16:30:51.686Z</time></trkpt><trkpt lat="43.9027862" lon="12.8949161"><ele>2.0</ele><time>2026-03-30T16:30:53.674Z</time></trkpt><trkpt lat="43.9028243" lon="12.8949966"><ele>2.0</ele><time>2026-03-30T16:30:55.682Z</time></trkpt><trkpt lat="43.9028767" lon="12.8950724"><ele>1.9999999999999998</ele><time>2026-03-30T16:30:57.683Z</time></trkpt><trkpt lat="43.9029231" lon="12.8951388"><ele>2.0</ele><time>2026-03-30T16:30:59.683Z</time></trkpt><trkpt lat="43.9029867" lon="12.8952049"><ele>2.0</ele><time>2026-03-30T16:31:01.679Z</time></trkpt><trkpt lat="43.9030638" lon="12.8952715"><ele>2.5</ele><time>2026-03-30T16:31:03.687Z</time></trkpt><trkpt lat="43.9031309" lon="12.8953437"><ele>3.0</ele><time>2026-03-30T16:31:05.679Z</time></trkpt><trkpt lat="43.9031813" lon="12.8954032"><ele>3.5</ele><time>2026-03-30T16:31:07.668Z</time></trkpt><trkpt lat="43.9032449" lon="12.8955119"><ele>4.0</ele><time>2026-03-30T16:31:10.672Z</time></trkpt><trkpt lat="43.9032966" lon="12.8955955"><ele>4.5</ele><time>2026-03-30T16:31:12.675Z</time></trkpt><trkpt lat="43.903353" lon="12.8956899"><ele>5.0</ele><time>2026-03-30T16:31:14.699Z</time></trkpt><trkpt lat="43.9034166" lon="12.8957708"><ele>5.333333333333334</ele><time>2026-03-30T16:31:16.684Z</time></trkpt><trkpt lat="43.9034721" lon="12.8958453"><ele>5.666666666666667</ele><time>2026-03-30T16:31:18.683Z</time></trkpt><trkpt lat="43.9035339" lon="12.8959078"><ele>6.0</ele><time>2026-03-30T16:31:20.682Z</time></trkpt><trkpt lat="43.9036118" lon="12.8959678"><ele>6.333333333333334</ele><time>2026-03-30T16:31:22.678Z</time></trkpt><trkpt lat="43.903683" lon="12.8960034"><ele>6.666666666666667</ele><time>2026-03-30T16:31:24.675Z</time></trkpt><trkpt lat="43.9037538" lon="12.8960172"><ele>7.0</ele><time>2026-03-30T16:31:26.683Z</time></trkpt><trkpt lat="43.9038394" lon="12.896023"><ele>7.000000000000001</ele><time>2026-03-30T16:31:28.683Z</time></trkpt><trkpt lat="43.9039239" lon="12.8960368"><ele>7.0</ele><time>2026-03-30T16:31:30.679Z</time></trkpt><trkpt lat="43.903991" lon="12.8960479"><ele>7.0</ele><time>2026-03-30T16:31:32.683Z</time></trkpt><trkpt lat="43.9040741" lon="12.8960353"><ele>7.0</ele><time>2026-03-30T16:31:35.682Z</time></trkpt><trkpt lat="43.9041538" lon="12.8959923"><ele>7.000000000000001</ele><time>2026-03-30T16:31:38.686Z</time></trkpt><trkpt lat="43.9042193" lon="12.8959545"><ele>7.0</ele><time>2026-03-30T16:31:41.684Z</time></trkpt><trkpt lat="43.9042916" lon="12.8958939"><ele>7.166666666666667</ele><time>2026-03-30T16:31:44.688Z</time></trkpt><trkpt lat="43.9043573" lon="12.8958285"><ele>7.333333333333334</ele><time>2026-03-30T16:31:47.685Z</time></trkpt><trkpt lat="43.9044254" lon="12.8957523"><ele>7.5</ele><time>2026-03-30T16:31:50.686Z</time></trkpt><trkpt lat="43.9044891" lon="12.8956788"><ele>7.666666666666666</ele><time>2026-03-30T16:31:53.68Z</time></trkpt><trkpt lat="43.904542" lon="12.8955836"><ele>7.833333333333333</ele><time>2026-03-30T16:31:56.692Z</time></trkpt><trkpt lat="43.9045992" lon="12.8954976"><ele>8.0</ele><time>2026-03-30T16:31:59.68Z</time></trkpt><trkpt lat="43.9046537" lon="12.8954431"><ele>7.999999999999999</ele><time>2026-03-30T16:32:01.681Z</time></trkpt><trkpt lat="43.9047093" lon="12.8953624"><ele>8.0</ele><time>2026-03-30T16:32:04.676Z</time></trkpt><trkpt lat="43.9047475" lon="12.895263"><ele>8.0</ele><time>2026-03-30T16:32:07.683Z</time></trkpt><trkpt lat="43.9047594" lon="12.8951507"><ele>8.0</ele><time>2026-03-30T16:32:10.678Z</time></trkpt><trkpt lat="43.9047342" lon="12.8950393"><ele>7.999999999999999</ele><time>2026-03-30T16:32:13.686Z</time></trkpt><trkpt lat="43.9046813" lon="12.8949404"><ele>8.0</ele><time>2026-03-30T16:32:16.697Z</time></trkpt><trkpt lat="43.9046116" lon="12.8948448"><ele>7.833333333333333</ele><time>2026-03-30T16:32:19.681Z</time></trkpt><trkpt lat="43.9045454" lon="12.8947718"><ele>7.666666666666666</ele><time>2026-03-30T16:32:21.686Z</time></trkpt><trkpt lat="43.9044887" lon="12.8947095"><ele>7.5</ele><time>2026-03-30T16:32:23.687Z</time></trkpt><trkpt lat="43.9044224" lon="12.8946369"><ele>7.333333333333334</ele><time>2026-03-30T16:32:25.679Z</time></trkpt><trkpt lat="43.9043659" lon="12.8945606"><ele>7.166666666666667</ele><time>2026-03-30T16:32:27.681Z</time></trkpt><trkpt lat="43.9043091" lon="12.8944946"><ele>7.0</ele><time>2026-03-30T16:32:29.674Z</time></trkpt><trkpt lat="43.9042477" lon="12.8944204"><ele>6.833333333333334</ele><time>2026-03-30T16:32:31.672Z</time></trkpt><trkpt lat="43.9041895" lon="12.8943488"><ele>6.666666666666667</ele><time>2026-03-30T16:32:33.676Z</time></trkpt><trkpt lat="43.9041385" lon="12.8942739"><ele>6.5</ele><time>2026-03-30T16:32:35.676Z</time></trkpt><trkpt lat="43.9040828" lon="12.8941911"><ele>6.333333333333334</ele><time>2026-03-30T16:32:37.68Z</time></trkpt><trkpt lat="43.9040262" lon="12.8941072"><ele>6.166666666666667</ele><time>2026-03-30T16:32:39.684Z</time></trkpt><trkpt lat="43.9039658" lon="12.8940168"><ele>6.0</ele><time>2026-03-30T16:32:41.672Z</time></trkpt><trkpt lat="43.903904" lon="12.893938"><ele>5.857142857142857</ele><time>2026-03-30T16:32:43.674Z</time></trkpt><trkpt lat="43.9038475" lon="12.8938649"><ele>5.714285714285714</ele><time>2026-03-30T16:32:45.682Z</time></trkpt><trkpt lat="43.9037932" lon="12.8937878"><ele>5.571428571428571</ele><time>2026-03-30T16:32:47.697Z</time></trkpt><trkpt lat="43.9037315" lon="12.8937166"><ele>5.428571428571429</ele><time>2026-03-30T16:32:49.678Z</time></trkpt><trkpt lat="43.9036814" lon="12.8936403"><ele>5.285714285714286</ele><time>2026-03-30T16:32:51.676Z</time></trkpt><trkpt lat="43.9036284" lon="12.8935805"><ele>5.142857142857142</ele><time>2026-03-30T16:32:54.679Z</time></trkpt><trkpt lat="43.9035637" lon="12.8936033"><ele>5.0</ele><time>2026-03-30T16:32:57.678Z</time></trkpt><trkpt lat="43.9034984" lon="12.89369"><ele>5.0</ele><time>2026-03-30T16:33:00.674Z</time></trkpt><trkpt lat="43.9034525" lon="12.8937499"><ele>5.0</ele><time>2026-03-30T16:33:02.68Z</time></trkpt><trkpt lat="43.9033913" lon="12.8938331"><ele>5.0</ele><time>2026-03-30T16:33:05.674Z</time></trkpt><trkpt lat="43.9033382" lon="12.8939139"><ele>5.0</ele><time>2026-03-30T16:33:08.677Z</time></trkpt><trkpt lat="43.9032858" lon="12.8939832"><ele>5.0</ele><time>2026-03-30T16:33:11.671Z</time></trkpt><trkpt lat="43.9032326" lon="12.8940479"><ele>5.0</ele><time>2026-03-30T16:33:14.672Z</time></trkpt><trkpt lat="43.9031727" lon="12.8941113"><ele>5.0</ele><time>2026-03-30T16:33:17.669Z</time></trkpt><trkpt lat="43.9031073" lon="12.8941897"><ele>4.571428571428571</ele><time>2026-03-30T16:33:20.677Z</time></trkpt><trkpt lat="43.9030533" lon="12.894257"><ele>4.142857142857143</ele><time>2026-03-30T16:33:23.676Z</time></trkpt><trkpt lat="43.902983" lon="12.8943305"><ele>3.7142857142857144</ele><time>2026-03-30T16:33:26.673Z</time></trkpt><trkpt lat="43.9029187" lon="12.8944044"><ele>3.2857142857142856</ele><time>2026-03-30T16:33:29.674Z</time></trkpt><trkpt lat="43.9028812" lon="12.8944783"><ele>2.8571428571428568</ele><time>2026-03-30T16:33:31.676Z</time></trkpt><trkpt lat="43.9028408" lon="12.8945461"><ele>2.4285714285714284</ele><time>2026-03-30T16:33:33.669Z</time></trkpt><trkpt lat="43.9028047" lon="12.8946377"><ele>2.0</ele><time>2026-03-30T16:33:35.671Z</time></trkpt><trkpt lat="43.9027788" lon="12.8947185"><ele>1.9999999999999998</ele><time>2026-03-30T16:33:37.682Z</time></trkpt><trkpt lat="43.9027551" lon="12.8948233"><ele>2.0</ele><time>2026-03-30T16:33:40.679Z</time></trkpt><trkpt lat="43.902762" lon="12.8949274"><ele>2.0</ele><time>2026-03-30T16:33:43.674Z</time></trkpt><trkpt lat="43.9028055" lon="12.8949976"><ele>2.0</ele><time>2026-03-30T16:33:45.662Z</time></trkpt><trkpt lat="43.902868" lon="12.8950698"><ele>1.9999999999999998</ele><time>2026-03-30T16:33:47.668Z</time></trkpt><trkpt lat="43.9029284" lon="12.8951457"><ele>2.0</ele><time>2026-03-30T16:33:49.682Z</time></trkpt><trkpt lat="43.90298" lon="12.8952216"><ele>2.4285714285714284</ele><time>2026-03-30T16:33:51.66Z</time></trkpt><trkpt lat="43.903043" lon="12.8952888"><ele>2.8571428571428568</ele><time>2026-03-30T16:33:53.664Z</time></trkpt><trkpt lat="43.9031019" lon="12.8953576"><ele>3.2857142857142856</ele><time>2026-03-30T16:33:55.663Z</time></trkpt><trkpt lat="43.90315" lon="12.8954156"><ele>3.7142857142857144</ele><time>2026-03-30T16:33:57.671Z</time></trkpt><trkpt lat="43.90319" lon="12.8954856"><ele>4.142857142857143</ele><time>2026-03-30T16:33:59.666Z</time></trkpt><trkpt lat="43.9032393" lon="12.895554"><ele>4.571428571428571</ele><time>2026-03-30T16:34:01.668Z</time></trkpt><trkpt lat="43.9032931" lon="12.895634"><ele>5.0</ele><time>2026-03-30T16:34:03.668Z</time></trkpt><trkpt lat="43.9033478" lon="12.8957259"><ele>5.0</ele><time>2026-03-30T16:34:05.671Z</time></trkpt><trkpt lat="43.9034113" lon="12.8958016"><ele>5.0</ele><time>2026-03-30T16:34:07.674Z</time></trkpt><trkpt lat="43.9034745" lon="12.8958527"><ele>5.0</ele><time>2026-03-30T16:34:09.68Z</time></trkpt><trkpt lat="43.9035362" lon="12.8959117"><ele>5.0</ele><time>2026-03-30T16:34:11.674Z</time></trkpt><trkpt lat="43.9036048" lon="12.8959648"><ele>5.0</ele><time>2026-03-30T16:34:13.674Z</time></trkpt><trkpt lat="43.9036739" lon="12.8960004"><ele>5.0</ele><time>2026-03-30T16:34:15.676Z</time></trkpt><trkpt lat="43.9037397" lon="12.8960203"><ele>5.285714285714286</ele><time>2026-03-30T16:34:17.669Z</time></trkpt><trkpt lat="43.9038191" lon="12.8960242"><ele>5.571428571428571</ele><time>2026-03-30T16:34:19.678Z</time></trkpt><trkpt lat="43.9038926" lon="12.8960294"><ele>5.857142857142858</ele><time>2026-03-30T16:34:21.679Z</time></trkpt><trkpt lat="43.903958" lon="12.8960296"><ele>6.142857142857142</ele><time>2026-03-30T16:34:23.667Z</time></trkpt><trkpt lat="43.904036" lon="12.896021"><ele>6.428571428571429</ele><time>2026-03-30T16:34:26.672Z</time></trkpt><trkpt lat="43.904107" lon="12.8959883"><ele>6.714285714285714</ele><time>2026-03-30T16:34:29.671Z</time></trkpt><trkpt lat="43.9041663" lon="12.8959476"><ele>7.0</ele><time>2026-03-30T16:34:32.674Z</time></trkpt><trkpt lat="43.9042334" lon="12.8959024"><ele>7.166666666666667</ele><time>2026-03-30T16:34:35.675Z</time></trkpt><trkpt lat="43.9043027" lon="12.8958478"><ele>7.333333333333334</ele><time>2026-03-30T16:34:38.676Z</time></trkpt><trkpt lat="43.9043726" lon="12.8957941"><ele>7.5</ele><time>2026-03-30T16:34:41.675Z</time></trkpt><trkpt lat="43.9044255" lon="12.8957422"><ele>7.666666666666666</ele><time>2026-03-30T16:34:43.678Z</time></trkpt><trkpt lat="43.904497" lon="12.895659"><ele>7.833333333333333</ele><time>2026-03-30T16:34:46.669Z</time></trkpt><trkpt lat="43.90455" lon="12.8955674"><ele>8.0</ele><time>2026-03-30T16:34:49.473Z</time></trkpt><trkpt lat="43.9046116" lon="12.8954869"><ele>7.999999999999999</ele><time>2026-03-30T16:34:52.489Z</time></trkpt><trkpt lat="43.9046676" lon="12.8954121"><ele>8.0</ele><time>2026-03-30T16:34:55.474Z</time></trkpt><trkpt lat="43.9047122" lon="12.8953256"><ele>8.0</ele><time>2026-03-30T16:34:58.477Z</time></trkpt><trkpt lat="43.9047461" lon="12.8952095"><ele>8.0</ele><time>2026-03-30T16:35:01.473Z</time></trkpt><trkpt lat="43.9047403" lon="12.8950998"><ele>7.999999999999999</ele><time>2026-03-30T16:35:04.473Z</time></trkpt><trkpt lat="43.9047058" lon="12.8949988"><ele>8.0</ele><time>2026-03-30T16:35:07.472Z</time></trkpt><trkpt lat="43.9046526" lon="12.8949078"><ele>7.833333333333333</ele><time>2026-03-30T16:35:10.463Z</time></trkpt><trkpt lat="43.9045939" lon="12.8948121"><ele>7.666666666666666</ele><time>2026-03-30T16:35:13.46Z</time></trkpt><trkpt lat="43.9045278" lon="12.8947312"><ele>7.5</ele><time>2026-03-30T16:35:16.468Z</time></trkpt><trkpt lat="43.9044613" lon="12.8946568"><ele>7.333333333333334</ele><time>2026-03-30T16:35:19.472Z</time></trkpt><trkpt lat="43.9043949" lon="12.8945861"><ele>7.166666666666667</ele><time>2026-03-30T16:35:22.48Z</time></trkpt><trkpt lat="43.9043383" lon="12.8945223"><ele>7.0</ele><time>2026-03-30T16:35:25.465Z</time></trkpt><trkpt lat="43.9042786" lon="12.8944432"><ele>6.833333333333334</ele><time>2026-03-30T16:35:28.476Z</time></trkpt><trkpt lat="43.9042166" lon="12.8943616"><ele>6.666666666666667</ele><time>2026-03-30T16:35:31.468Z</time></trkpt><trkpt lat="43.9041586" lon="12.8942803"><ele>6.5</ele><time>2026-03-30T16:35:34.466Z</time></trkpt><trkpt lat="43.9040969" lon="12.8941939"><ele>6.333333333333334</ele><time>2026-03-30T16:35:37.47Z</time></trkpt><trkpt lat="43.9040505" lon="12.8941013"><ele>6.166666666666667</ele><time>2026-03-30T16:35:40.468Z</time></trkpt><trkpt lat="43.9039971" lon="12.8940178"><ele>6.0</ele><time>2026-03-30T16:35:43.466Z</time></trkpt><trkpt lat="43.9039513" lon="12.8939495"><ele>5.833333333333333</ele><time>2026-03-30T16:35:46.467Z</time></trkpt><trkpt lat="43.9038964" lon="12.8938863"><ele>5.666666666666667</ele><time>2026-03-30T16:35:49.466Z</time></trkpt><trkpt lat="43.9038319" lon="12.8938107"><ele>5.5</ele><time>2026-03-30T16:35:52.463Z</time></trkpt><trkpt lat="43.9037874" lon="12.8937438"><ele>5.333333333333334</ele><time>2026-03-30T16:35:54.475Z</time></trkpt><trkpt lat="43.9037213" lon="12.8936576"><ele>5.166666666666667</ele><time>2026-03-30T16:35:57.471Z</time></trkpt><trkpt lat="43.9036462" lon="12.8936118"><ele>5.0</ele><time>2026-03-30T16:36:00.465Z</time></trkpt><trkpt lat="43.9035676" lon="12.8936486"><ele>5.0</ele><time>2026-03-30T16:36:03.469Z</time></trkpt><trkpt lat="43.9034954" lon="12.8937343"><ele>5.0</ele><time>2026-03-30T16:36:06.468Z</time></trkpt><trkpt lat="43.903447" lon="12.8937925"><ele>5.0</ele><time>2026-03-30T16:36:08.466Z</time></trkpt><trkpt lat="43.903396" lon="12.8938469"><ele>5.0</ele><time>2026-03-30T16:36:10.475Z</time></trkpt><trkpt lat="43.9033278" lon="12.8939209"><ele>5.0</ele><time>2026-03-30T16:36:13.471Z</time></trkpt><trkpt lat="43.9032594" lon="12.8939924"><ele>5.0</ele><time>2026-03-30T16:36:16.471Z</time></trkpt><trkpt lat="43.9031979" lon="12.8940679"><ele>4.666666666666667</ele><time>2026-03-30T16:36:19.471Z</time></trkpt><trkpt lat="43.9031417" lon="12.8941525"><ele>4.333333333333334</ele><time>2026-03-30T16:36:22.471Z</time></trkpt><trkpt lat="43.9030874" lon="12.8942373"><ele>4.0</ele><time>2026-03-30T16:36:25.488Z</time></trkpt><trkpt lat="43.9030253" lon="12.8943202"><ele>3.666666666666667</ele><time>2026-03-30T16:36:28.47Z</time></trkpt><trkpt lat="43.9029612" lon="12.8944019"><ele>3.3333333333333335</ele><time>2026-03-30T16:36:31.46Z</time></trkpt><trkpt lat="43.9029214" lon="12.8944703"><ele>3.0</ele><time>2026-03-30T16:36:33.461Z</time></trkpt><trkpt lat="43.9028688" lon="12.8945824"><ele>2.8333333333333335</ele><time>2026-03-30T16:36:36.472Z</time></trkpt><trkpt lat="43.9028361" lon="12.8946679"><ele>2.6666666666666665</ele><time>2026-03-30T16:36:38.464Z</time></trkpt><trkpt lat="43.9027913" lon="12.8947383"><ele>2.5</ele><time>2026-03-30T16:36:40.469Z</time></trkpt><trkpt lat="43.9027638" lon="12.8948529"><ele>2.333333333333333</ele><time>2026-03-30T16:36:43.364Z</time></trkpt><trkpt lat="43.9027927" lon="12.894961"><ele>2.1666666666666665</ele><time>2026-03-30T16:36:46.151Z</time></trkpt><trkpt lat="43.9028424" lon="12.8950195"><ele>2.0</ele><time>2026-03-30T16:36:48.128Z</time></trkpt><trkpt lat="43.9028957" lon="12.8950968"><ele>2.4285714285714284</ele><time>2026-03-30T16:36:51.131Z</time></trkpt><trkpt lat="43.9029509" lon="12.8951691"><ele>2.8571428571428568</ele><time>2026-03-30T16:36:54.135Z</time></trkpt><trkpt lat="43.9030028" lon="12.895222"><ele>3.2857142857142856</ele><time>2026-03-30T16:36:56.142Z</time></trkpt><trkpt lat="43.9030669" lon="12.8952753"><ele>3.7142857142857144</ele><time>2026-03-30T16:36:58.135Z</time></trkpt><trkpt lat="43.9031193" lon="12.8953282"><ele>4.142857142857143</ele><time>2026-03-30T16:37:00.134Z</time></trkpt><trkpt lat="43.9031686" lon="12.8954179"><ele>4.571428571428571</ele><time>2026-03-30T16:37:03.143Z</time></trkpt><trkpt lat="43.9032178" lon="12.8955116"><ele>5.0</ele><time>2026-03-30T16:37:06.14Z</time></trkpt><trkpt lat="43.9032618" lon="12.8955784"><ele>5.0</ele><time>2026-03-30T16:37:08.142Z</time></trkpt><trkpt lat="43.9033071" lon="12.8956506"><ele>5.0</ele><time>2026-03-30T16:37:10.138Z</time></trkpt><trkpt lat="43.9033554" lon="12.895713"><ele>5.0</ele><time>2026-03-30T16:37:12.138Z</time></trkpt><trkpt lat="43.9034163" lon="12.8957925"><ele>5.0</ele><time>2026-03-30T16:37:15.133Z</time></trkpt><trkpt lat="43.9034786" lon="12.8958548"><ele>5.0</ele><time>2026-03-30T16:37:18.14Z</time></trkpt><trkpt lat="43.9035354" lon="12.8958963"><ele>5.0</ele><time>2026-03-30T16:37:20.133Z</time></trkpt><trkpt lat="43.9035946" lon="12.8959387"><ele>5.0</ele><time>2026-03-30T16:37:22.135Z</time></trkpt><trkpt lat="43.9036742" lon="12.8959863"><ele>5.333333333333334</ele><time>2026-03-30T16:37:25.129Z</time></trkpt><trkpt lat="43.9037495" lon="12.896005"><ele>5.666666666666667</ele><time>2026-03-30T16:37:28.136Z</time></trkpt><trkpt lat="43.9038393" lon="12.8960008"><ele>6.0</ele><time>2026-03-30T16:37:31.137Z</time></trkpt><trkpt lat="43.903929" lon="12.8960111"><ele>6.333333333333334</ele><time>2026-03-30T16:37:34.138Z</time></trkpt><trkpt lat="43.9040261" lon="12.8960202"><ele>6.666666666666667</ele><time>2026-03-30T16:37:37.136Z</time></trkpt><trkpt lat="43.9040918" lon="12.8960172"><ele>7.0</ele><time>2026-03-30T16:37:39.134Z</time></trkpt><trkpt lat="43.9041525" lon="12.8959859"><ele>7.000000000000001</ele><time>2026-03-30T16:37:41.137Z</time></trkpt><trkpt lat="43.9042173" lon="12.8959308"><ele>7.0</ele><time>2026-03-30T16:37:43.134Z</time></trkpt><trkpt lat="43.9042826" lon="12.895877"><ele>7.0</ele><time>2026-03-30T16:37:45.131Z</time></trkpt><trkpt lat="43.9043429" lon="12.8958336"><ele>7.0</ele><time>2026-03-30T16:37:47.133Z</time></trkpt><trkpt lat="43.9043949" lon="12.8957834"><ele>7.000000000000001</ele><time>2026-03-30T16:37:49.137Z</time></trkpt><trkpt lat="43.9044553" lon="12.8957042"><ele>7.0</ele><time>2026-03-30T16:37:52.134Z</time></trkpt><trkpt lat="43.904527" lon="12.8956244"><ele>7.000000000000001</ele><time>2026-03-30T16:37:55.131Z</time></trkpt><trkpt lat="43.9045834" lon="12.8955391"><ele>7.0</ele><time>2026-03-30T16:37:58.129Z</time></trkpt><trkpt lat="43.9046482" lon="12.895466"><ele>7.0</ele><time>2026-03-30T16:38:01.137Z</time></trkpt><trkpt lat="43.904702" lon="12.8953804"><ele>7.0</ele><time>2026-03-30T16:38:04.123Z</time></trkpt><trkpt lat="43.9047527" lon="12.8952731"><ele>7.000000000000001</ele><time>2026-03-30T16:38:07.122Z</time></trkpt><trkpt lat="43.9047684" lon="12.8951495"><ele>7.0</ele><time>2026-03-30T16:38:10.129Z</time></trkpt><trkpt lat="43.9047628" lon="12.8950416"><ele>7.000000000000001</ele><time>2026-03-30T16:38:13.139Z</time></trkpt><trkpt lat="43.9047236" lon="12.8949338"><ele>7.0</ele><time>2026-03-30T16:38:16.132Z</time></trkpt><trkpt lat="43.9046569" lon="12.8948552"><ele>7.0</ele><time>2026-03-30T16:38:19.131Z</time></trkpt><trkpt lat="43.9045978" lon="12.8947785"><ele>7.0</ele><time>2026-03-30T16:38:22.136Z</time></trkpt><trkpt lat="43.9045315" lon="12.8946901"><ele>7.000000000000001</ele><time>2026-03-30T16:38:25.13Z</time></trkpt><trkpt lat="43.9044585" lon="12.8946228"><ele>7.0</ele><time>2026-03-30T16:38:28.142Z</time></trkpt><trkpt lat="43.9043928" lon="12.8945423"><ele>7.000000000000001</ele><time>2026-03-30T16:38:31.135Z</time></trkpt><trkpt lat="43.9043283" lon="12.8944693"><ele>7.0</ele><time>2026-03-30T16:38:34.14Z</time></trkpt><trkpt lat="43.9042829" lon="12.8943932"><ele>7.0</ele><time>2026-03-30T16:38:37.141Z</time></trkpt><trkpt lat="43.9042282" lon="12.8942931"><ele>7.0</ele><time>2026-03-30T16:38:40.134Z</time></trkpt><trkpt lat="43.9041674" lon="12.8942089"><ele>7.000000000000001</ele><time>2026-03-30T16:38:43.144Z</time></trkpt><trkpt lat="43.9041058" lon="12.8941386"><ele>7.0</ele><time>2026-03-30T16:38:46.134Z</time></trkpt><trkpt lat="43.9040455" lon="12.8940564"><ele>6.666666666666667</ele><time>2026-03-30T16:38:49.14Z</time></trkpt><trkpt lat="43.9039814" lon="12.8939673"><ele>6.333333333333334</ele><time>2026-03-30T16:38:52.131Z</time></trkpt><trkpt lat="43.9039333" lon="12.8938949"><ele>6.0</ele><time>2026-03-30T16:38:55.135Z</time></trkpt><trkpt lat="43.903873" lon="12.8938349"><ele>5.666666666666667</ele><time>2026-03-30T16:38:58.141Z</time></trkpt><trkpt lat="43.9038103" lon="12.8937701"><ele>5.333333333333334</ele><time>2026-03-30T16:39:01.132Z</time></trkpt><trkpt lat="43.9037354" lon="12.8937"><ele>5.0</ele><time>2026-03-30T16:39:04.134Z</time></trkpt><trkpt lat="43.9036806" lon="12.8936222"><ele>5.0</ele><time>2026-03-30T16:39:07.128Z</time></trkpt><trkpt lat="43.9036048" lon="12.8935804"><ele>5.0</ele><time>2026-03-30T16:39:10.122Z</time></trkpt><trkpt lat="43.9035387" lon="12.8936221"><ele>5.0</ele><time>2026-03-30T16:39:13.119Z</time></trkpt><trkpt lat="43.9034766" lon="12.8937049"><ele>5.0</ele><time>2026-03-30T16:39:16.122Z</time></trkpt><trkpt lat="43.9034151" lon="12.8937903"><ele>5.0</ele><time>2026-03-30T16:39:19.117Z</time></trkpt><trkpt lat="43.9033517" lon="12.8938816"><ele>5.0</ele><time>2026-03-30T16:39:22.122Z</time></trkpt><trkpt lat="43.903282" lon="12.8939632"><ele>4.666666666666667</ele><time>2026-03-30T16:39:25.128Z</time></trkpt><trkpt lat="43.9032246" lon="12.8940364"><ele>4.333333333333334</ele><time>2026-03-30T16:39:28.129Z</time></trkpt><trkpt lat="43.9031623" lon="12.8941186"><ele>4.0</ele><time>2026-03-30T16:39:31.129Z</time></trkpt><trkpt lat="43.9031118" lon="12.8941985"><ele>3.666666666666667</ele><time>2026-03-30T16:39:34.129Z</time></trkpt><trkpt lat="43.9030554" lon="12.8942739"><ele>3.3333333333333335</ele><time>2026-03-30T16:39:37.131Z</time></trkpt><trkpt lat="43.9029924" lon="12.8943514"><ele>3.0</ele><time>2026-03-30T16:39:40.121Z</time></trkpt><trkpt lat="43.9029283" lon="12.8944225"><ele>2.8571428571428568</ele><time>2026-03-30T16:39:43.117Z</time></trkpt><trkpt lat="43.9028802" lon="12.8945144"><ele>2.7142857142857144</ele><time>2026-03-30T16:39:46.123Z</time></trkpt><trkpt lat="43.9028451" lon="12.8945912"><ele>2.571428571428571</ele><time>2026-03-30T16:39:48.12Z</time></trkpt><trkpt lat="43.9028181" lon="12.8946795"><ele>2.4285714285714284</ele><time>2026-03-30T16:39:50.121Z</time></trkpt><trkpt lat="43.9027809" lon="12.89475"><ele>2.2857142857142856</ele><time>2026-03-30T16:39:52.125Z</time></trkpt><trkpt lat="43.9027498" lon="12.8948494"><ele>2.142857142857143</ele><time>2026-03-30T16:39:55.119Z</time></trkpt><trkpt lat="43.9027671" lon="12.8949464"><ele>2.0</ele><time>2026-03-30T16:39:58.115Z</time></trkpt><trkpt lat="43.9028306" lon="12.8950466"><ele>2.5</ele><time>2026-03-30T16:40:01.125Z</time></trkpt><trkpt lat="43.9028787" lon="12.8951113"><ele>3.0</ele><time>2026-03-30T16:40:03.124Z</time></trkpt><trkpt lat="43.9029379" lon="12.8951698"><ele>3.5</ele><time>2026-03-30T16:40:05.12Z</time></trkpt><trkpt lat="43.9030089" lon="12.8952536"><ele>4.0</ele><time>2026-03-30T16:40:08.109Z</time></trkpt><trkpt lat="43.9030904" lon="12.8952978"><ele>4.5</ele><time>2026-03-30T16:40:11.113Z</time></trkpt><trkpt lat="43.9031459" lon="12.8953676"><ele>5.0</ele><time>2026-03-30T16:40:14.126Z</time></trkpt><trkpt lat="43.9031921" lon="12.8954614"><ele>5.0</ele><time>2026-03-30T16:40:18.126Z</time></trkpt><trkpt lat="43.9032509" lon="12.8955473"><ele>5.0</ele><time>2026-03-30T16:40:21.127Z</time></trkpt><trkpt lat="43.9032976" lon="12.895621"><ele>5.0</ele><time>2026-03-30T16:40:23.131Z</time></trkpt><trkpt lat="43.9033423" lon="12.8956948"><ele>5.0</ele><time>2026-03-30T16:40:25.125Z</time></trkpt><trkpt lat="43.9033936" lon="12.8957542"><ele>5.0</ele><time>2026-03-30T16:40:27.131Z</time></trkpt><trkpt lat="43.9034431" lon="12.8958136"><ele>5.0</ele><time>2026-03-30T16:40:29.124Z</time></trkpt><trkpt lat="43.9034965" lon="12.8958894"><ele>5.0</ele><time>2026-03-30T16:40:32.133Z</time></trkpt><trkpt lat="43.903565" lon="12.8959584"><ele>5.285714285714286</ele><time>2026-03-30T16:40:35.12Z</time></trkpt><trkpt lat="43.9036296" lon="12.8959998"><ele>5.571428571428571</ele><time>2026-03-30T16:40:38.129Z</time></trkpt><trkpt lat="43.9037097" lon="12.8960077"><ele>5.857142857142858</ele><time>2026-03-30T16:40:41.118Z</time></trkpt><trkpt lat="43.9037744" lon="12.8959926"><ele>6.142857142857142</ele><time>2026-03-30T16:40:43.125Z</time></trkpt><trkpt lat="43.9038379" lon="12.8959901"><ele>6.428571428571429</ele><time>2026-03-30T16:40:45.121Z</time></trkpt><trkpt lat="43.9039021" lon="12.8959932"><ele>6.714285714285714</ele><time>2026-03-30T16:40:47.126Z</time></trkpt><trkpt lat="43.9039747" lon="12.8960152"><ele>7.0</ele><time>2026-03-30T16:40:50.132Z</time></trkpt><trkpt lat="43.9040495" lon="12.8960203"><ele>7.0</ele><time>2026-03-30T16:40:53.131Z</time></trkpt><trkpt lat="43.9041427" lon="12.8959486"><ele>6.999999999999999</ele><time>2026-03-30T16:40:56.918Z</time></trkpt><trkpt lat="43.9042239" lon="12.8958931"><ele>6.999999999999999</ele><time>2026-03-30T16:40:59.924Z</time></trkpt><trkpt lat="43.9043221" lon="12.8958416"><ele>7.0</ele><time>2026-03-30T16:41:03.523Z</time></trkpt><trkpt lat="43.9043976" lon="12.8958051"><ele>7.0</ele><time>2026-03-30T16:41:06.223Z</time></trkpt><trkpt lat="43.9044616" lon="12.8957181"><ele>7.142857142857142</ele><time>2026-03-30T16:41:09.134Z</time></trkpt><trkpt lat="43.9045104" lon="12.8956578"><ele>7.285714285714286</ele><time>2026-03-30T16:41:11.137Z</time></trkpt><trkpt lat="43.9045589" lon="12.8955732"><ele>7.428571428571429</ele><time>2026-03-30T16:41:14.135Z</time></trkpt><trkpt lat="43.9046002" lon="12.8955071"><ele>7.571428571428571</ele><time>2026-03-30T16:41:17.136Z</time></trkpt><trkpt lat="43.9046556" lon="12.8954316"><ele>7.7142857142857135</ele><time>2026-03-30T16:41:20.136Z</time></trkpt><trkpt lat="43.9047043" lon="12.8953754"><ele>7.857142857142857</ele><time>2026-03-30T16:41:22.138Z</time></trkpt><trkpt lat="43.9047499" lon="12.8952804"><ele>8.0</ele><time>2026-03-30T16:41:25.141Z</time></trkpt><trkpt lat="43.9047712" lon="12.8951513"><ele>7.833333333333333</ele><time>2026-03-30T16:41:28.137Z</time></trkpt><trkpt lat="43.9047642" lon="12.895043"><ele>7.666666666666666</ele><time>2026-03-30T16:41:31.14Z</time></trkpt><trkpt lat="43.9047242" lon="12.8949449"><ele>7.5</ele><time>2026-03-30T16:41:34.143Z</time></trkpt><trkpt lat="43.9046679" lon="12.8948825"><ele>7.333333333333334</ele><time>2026-03-30T16:41:36.142Z</time></trkpt><trkpt lat="43.9046034" lon="12.8948031"><ele>7.166666666666667</ele><time>2026-03-30T16:41:38.148Z</time></trkpt><trkpt lat="43.904548" lon="12.8947244"><ele>7.0</ele><time>2026-03-30T16:41:40.134Z</time></trkpt><trkpt lat="43.9044992" lon="12.8946587"><ele>7.000000000000001</ele><time>2026-03-30T16:41:42.14Z</time></trkpt><trkpt lat="43.9044454" lon="12.8945929"><ele>7.0</ele><time>2026-03-30T16:41:44.136Z</time></trkpt><trkpt lat="43.9043868" lon="12.8945282"><ele>7.0</ele><time>2026-03-30T16:41:46.136Z</time></trkpt><trkpt lat="43.9043237" lon="12.8944576"><ele>7.0</ele><time>2026-03-30T16:41:48.137Z</time></trkpt><trkpt lat="43.9042593" lon="12.8943947"><ele>7.000000000000001</ele><time>2026-03-30T16:41:50.136Z</time></trkpt><trkpt lat="43.9042026" lon="12.8943271"><ele>7.0</ele><time>2026-03-30T16:41:52.13Z</time></trkpt><trkpt lat="43.9041522" lon="12.8942448"><ele>6.666666666666667</ele><time>2026-03-30T16:41:54.126Z</time></trkpt><trkpt lat="43.9040889" lon="12.8941677"><ele>6.333333333333334</ele><time>2026-03-30T16:41:56.128Z</time></trkpt><trkpt lat="43.9040247" lon="12.894097"><ele>6.0</ele><time>2026-03-30T16:41:58.134Z</time></trkpt><trkpt lat="43.903975" lon="12.8940243"><ele>5.666666666666667</ele><time>2026-03-30T16:42:00.14Z</time></trkpt><trkpt lat="43.9039205" lon="12.8939499"><ele>5.333333333333334</ele><time>2026-03-30T16:42:02.141Z</time></trkpt><trkpt lat="43.9038634" lon="12.8938756"><ele>5.0</ele><time>2026-03-30T16:42:04.146Z</time></trkpt><trkpt lat="43.9038072" lon="12.8938118"><ele>5.0</ele><time>2026-03-30T16:42:06.129Z</time></trkpt><trkpt lat="43.9037556" lon="12.8937401"><ele>5.0</ele><time>2026-03-30T16:42:08.131Z</time></trkpt><trkpt lat="43.9037035" lon="12.893669"><ele>5.0</ele><time>2026-03-30T16:42:10.135Z</time></trkpt><trkpt lat="43.9036481" lon="12.8935977"><ele>5.0</ele><time>2026-03-30T16:42:12.134Z</time></trkpt><trkpt lat="43.9035736" lon="12.8935717"><ele>5.0</ele><time>2026-03-30T16:42:15.139Z</time></trkpt><trkpt lat="43.9035121" lon="12.893629"><ele>5.0</ele><time>2026-03-30T16:42:18.139Z</time></trkpt><trkpt lat="43.903449" lon="12.8937099"><ele>4.666666666666667</ele><time>2026-03-30T16:42:21.13Z</time></trkpt><trkpt lat="43.903398" lon="12.893794"><ele>4.333333333333334</ele><time>2026-03-30T16:42:24.137Z</time></trkpt><trkpt lat="43.9033314" lon="12.893872"><ele>4.0</ele><time>2026-03-30T16:42:27.139Z</time></trkpt><trkpt lat="43.9032769" lon="12.8939452"><ele>3.666666666666667</ele><time>2026-03-30T16:42:30.141Z</time></trkpt><trkpt lat="43.9032157" lon="12.894033"><ele>3.3333333333333335</ele><time>2026-03-30T16:42:33.15Z</time></trkpt><trkpt lat="43.9031647" lon="12.8941154"><ele>3.0</ele><time>2026-03-30T16:42:36.148Z</time></trkpt><trkpt lat="43.9031125" lon="12.8941864"><ele>2.8333333333333335</ele><time>2026-03-30T16:42:39.138Z</time></trkpt><trkpt lat="43.9030594" lon="12.8942679"><ele>2.6666666666666665</ele><time>2026-03-30T16:42:42.133Z</time></trkpt><trkpt lat="43.9029873" lon="12.8943458"><ele>2.5</ele><time>2026-03-30T16:42:45.125Z</time></trkpt><trkpt lat="43.902922" lon="12.8944215"><ele>2.333333333333333</ele><time>2026-03-30T16:42:48.136Z</time></trkpt><trkpt lat="43.9028858" lon="12.8944984"><ele>2.1666666666666665</ele><time>2026-03-30T16:42:50.133Z</time></trkpt><trkpt lat="43.9028521" lon="12.8945744"><ele>2.0</ele><time>2026-03-30T16:42:52.125Z</time></trkpt><trkpt lat="43.902812" lon="12.8946607"><ele>2.0</ele><time>2026-03-30T16:42:54.127Z</time></trkpt><trkpt lat="43.9027753" lon="12.8947397"><ele>1.9999999999999998</ele><time>2026-03-30T16:42:56.125Z</time></trkpt><trkpt lat="43.9027452" lon="12.894857"><ele>2.0</ele><time>2026-03-30T16:42:59.125Z</time></trkpt><trkpt lat="43.9027622" lon="12.8949438"><ele>2.0</ele><time>2026-03-30T16:43:01.124Z</time></trkpt><trkpt lat="43.9028117" lon="12.8950003"><ele>1.9999999999999998</ele><time>2026-03-30T16:43:03.153Z</time></trkpt><trkpt lat="43.9028622" lon="12.8950755"><ele>2.0</ele><time>2026-03-30T16:43:05.126Z</time></trkpt><trkpt lat="43.9029143" lon="12.8951663"><ele>2.0</ele><time>2026-03-30T16:43:07.129Z</time></trkpt><trkpt lat="43.9029718" lon="12.8952553"><ele>2.5</ele><time>2026-03-30T16:43:09.121Z</time></trkpt><trkpt lat="43.9030405" lon="12.8953181"><ele>3.0</ele><time>2026-03-30T16:43:11.128Z</time></trkpt><trkpt lat="43.903099" lon="12.8953742"><ele>3.5</ele><time>2026-03-30T16:43:13.13Z</time></trkpt><trkpt lat="43.9031526" lon="12.8954338"><ele>4.0</ele><time>2026-03-30T16:43:15.125Z</time></trkpt><trkpt lat="43.9032003" lon="12.8955151"><ele>4.5</ele><time>2026-03-30T16:43:17.131Z</time></trkpt><trkpt lat="43.9032589" lon="12.895599"><ele>5.0</ele><time>2026-03-30T16:43:19.137Z</time></trkpt><trkpt lat="43.9033204" lon="12.8956807"><ele>5.0</ele><time>2026-03-30T16:43:21.143Z</time></trkpt><trkpt lat="43.9033828" lon="12.8957612"><ele>5.0</ele><time>2026-03-30T16:43:23.135Z</time></trkpt><trkpt lat="43.9034418" lon="12.8958245"><ele>5.0</ele><time>2026-03-30T16:43:25.143Z</time></trkpt><trkpt lat="43.9034997" lon="12.8958977"><ele>5.0</ele><time>2026-03-30T16:43:27.136Z</time></trkpt><trkpt lat="43.9035684" lon="12.8959634"><ele>5.0</ele><time>2026-03-30T16:43:29.135Z</time></trkpt><trkpt lat="43.9036305" lon="12.896008"><ele>5.0</ele><time>2026-03-30T16:43:31.134Z</time></trkpt><trkpt lat="43.9036939" lon="12.8960324"><ele>5.333333333333334</ele><time>2026-03-30T16:43:33.132Z</time></trkpt><trkpt lat="43.9037754" lon="12.8960343"><ele>5.666666666666667</ele><time>2026-03-30T16:43:35.156Z</time></trkpt><trkpt lat="43.903861" lon="12.8960354"><ele>6.0</ele><time>2026-03-30T16:43:37.138Z</time></trkpt><trkpt lat="43.9039369" lon="12.8960313"><ele>6.333333333333334</ele><time>2026-03-30T16:43:39.136Z</time></trkpt><trkpt lat="43.9040228" lon="12.8960297"><ele>6.666666666666667</ele><time>2026-03-30T16:43:42.138Z</time></trkpt><trkpt lat="43.904108" lon="12.8960067"><ele>7.0</ele><time>2026-03-30T16:43:45.139Z</time></trkpt><trkpt lat="43.9041858" lon="12.8959675"><ele>7.166666666666667</ele><time>2026-03-30T16:43:48.14Z</time></trkpt><trkpt lat="43.9042563" lon="12.8959286"><ele>7.333333333333334</ele><time>2026-03-30T16:43:51.134Z</time></trkpt><trkpt lat="43.9043334" lon="12.8958676"><ele>7.5</ele><time>2026-03-30T16:43:54.135Z</time></trkpt><trkpt lat="43.904401" lon="12.8958263"><ele>7.666666666666666</ele><time>2026-03-30T16:43:57.118Z</time></trkpt><trkpt lat="43.9044779" lon="12.8957808"><ele>7.833333333333333</ele><time>2026-03-30T16:43:59.11Z</time></trkpt><trkpt lat="43.9045379" lon="12.8956887"><ele>8.0</ele><time>2026-03-30T16:44:06.107Z</time></trkpt><trkpt lat="43.9046247" lon="12.8956415"><ele>8.0</ele><time>2026-03-30T16:44:09.109Z</time></trkpt><trkpt lat="43.9047272" lon="12.8956376"><ele>8.0</ele><time>2026-03-30T16:44:11.117Z</time></trkpt><trkpt lat="43.904803" lon="12.8956239"><ele>8.0</ele><time>2026-03-30T16:44:12.107Z</time></trkpt><trkpt lat="43.9048806" lon="12.8955625"><ele>8.0</ele><time>2026-03-30T16:44:14.107Z</time></trkpt><trkpt lat="43.9048708" lon="12.8954526"><ele>8.0</ele><time>2026-03-30T16:44:17.114Z</time></trkpt><trkpt lat="43.9048369" lon="12.8952958"><ele>7.999999999999999</ele><time>2026-03-30T16:44:19.119Z</time></trkpt><trkpt lat="43.9047987" lon="12.8951561"><ele>8.0</ele><time>2026-03-30T16:44:21.128Z</time></trkpt><trkpt lat="43.9047603" lon="12.8950414"><ele>8.0</ele><time>2026-03-30T16:44:23.124Z</time></trkpt><trkpt lat="43.904721" lon="12.8949531"><ele>8.0</ele><time>2026-03-30T16:44:25.118Z</time></trkpt><trkpt lat="43.9046706" lon="12.8948814"><ele>7.999999999999999</ele><time>2026-03-30T16:44:27.12Z</time></trkpt><trkpt lat="43.9046085" lon="12.8947893"><ele>8.0</ele><time>2026-03-30T16:44:29.128Z</time></trkpt><trkpt lat="43.9045447" lon="12.8947147"><ele>7.833333333333333</ele><time>2026-03-30T16:44:31.124Z</time></trkpt><trkpt lat="43.9044902" lon="12.8946513"><ele>7.666666666666666</ele><time>2026-03-30T16:44:33.119Z</time></trkpt><trkpt lat="43.904434" lon="12.8945701"><ele>7.5</ele><time>2026-03-30T16:44:35.177Z</time></trkpt><trkpt lat="43.904374" lon="12.8944907"><ele>7.333333333333334</ele><time>2026-03-30T16:44:37.134Z</time></trkpt><trkpt lat="43.9043089" lon="12.8944108"><ele>7.166666666666667</ele><time>2026-03-30T16:44:39.121Z</time></trkpt><trkpt lat="43.9042357" lon="12.8943163"><ele>7.0</ele><time>2026-03-30T16:44:41.125Z</time></trkpt><trkpt lat="43.9041732" lon="12.8942288"><ele>6.666666666666667</ele><time>2026-03-30T16:44:43.127Z</time></trkpt><trkpt lat="43.9041149" lon="12.8941548"><ele>6.333333333333334</ele><time>2026-03-30T16:44:45.135Z</time></trkpt><trkpt lat="43.9040541" lon="12.8940711"><ele>6.0</ele><time>2026-03-30T16:44:47.136Z</time></trkpt><trkpt lat="43.9039887" lon="12.8939916"><ele>5.666666666666667</ele><time>2026-03-30T16:44:49.144Z</time></trkpt><trkpt lat="43.9039286" lon="12.8939121"><ele>5.333333333333334</ele><time>2026-03-30T16:44:51.144Z</time></trkpt><trkpt lat="43.9038643" lon="12.8938399"><ele>5.0</ele><time>2026-03-30T16:44:53.141Z</time></trkpt><trkpt lat="43.9038042" lon="12.8937697"><ele>5.0</ele><time>2026-03-30T16:44:55.14Z</time></trkpt><trkpt lat="43.9037446" lon="12.8936957"><ele>5.0</ele><time>2026-03-30T16:44:57.146Z</time></trkpt><trkpt lat="43.9036901" lon="12.8936176"><ele>5.0</ele><time>2026-03-30T16:44:59.143Z</time></trkpt><trkpt lat="43.9036199" lon="12.8935667"><ele>5.0</ele><time>2026-03-30T16:45:02.134Z</time></trkpt><trkpt lat="43.9035482" lon="12.8936049"><ele>5.0</ele><time>2026-03-30T16:45:05.15Z</time></trkpt><trkpt lat="43.9034878" lon="12.8936829"><ele>5.0</ele><time>2026-03-30T16:45:08.137Z</time></trkpt><trkpt lat="43.9034307" lon="12.8937616"><ele>4.666666666666667</ele><time>2026-03-30T16:45:11.135Z</time></trkpt><trkpt lat="43.903371" lon="12.8938581"><ele>4.333333333333334</ele><time>2026-03-30T16:45:14.134Z</time></trkpt><trkpt lat="43.9033145" lon="12.8939414"><ele>4.0</ele><time>2026-03-30T16:45:17.146Z</time></trkpt><trkpt lat="43.9032527" lon="12.8940104"><ele>3.666666666666667</ele><time>2026-03-30T16:45:20.14Z</time></trkpt><trkpt lat="43.9031997" lon="12.8940815"><ele>3.3333333333333335</ele><time>2026-03-30T16:45:23.142Z</time></trkpt><trkpt lat="43.9031574" lon="12.8941627"><ele>3.0</ele><time>2026-03-30T16:45:26.139Z</time></trkpt><trkpt lat="43.9031028" lon="12.8942438"><ele>2.8333333333333335</ele><time>2026-03-30T16:45:29.134Z</time></trkpt><trkpt lat="43.903027" lon="12.8943199"><ele>2.6666666666666665</ele><time>2026-03-30T16:45:32.139Z</time></trkpt><trkpt lat="43.9029527" lon="12.8943874"><ele>2.5</ele><time>2026-03-30T16:45:35.134Z</time></trkpt><trkpt lat="43.902887" lon="12.8944695"><ele>2.333333333333333</ele><time>2026-03-30T16:45:38.137Z</time></trkpt><trkpt lat="43.9028466" lon="12.8945456"><ele>2.1666666666666665</ele><time>2026-03-30T16:45:40.136Z</time></trkpt><trkpt lat="43.9028073" lon="12.8946223"><ele>2.0</ele><time>2026-03-30T16:45:42.131Z</time></trkpt><trkpt lat="43.9027711" lon="12.8947016"><ele>1.9999999999999998</ele><time>2026-03-30T16:45:44.128Z</time></trkpt><trkpt lat="43.9027315" lon="12.89481"><ele>2.0</ele><time>2026-03-30T16:45:47.134Z</time></trkpt><trkpt lat="43.902736" lon="12.8949255"><ele>2.0</ele><time>2026-03-30T16:45:50.133Z</time></trkpt><trkpt lat="43.9028122" lon="12.8950095"><ele>2.0</ele><time>2026-03-30T16:45:53.131Z</time></trkpt><trkpt lat="43.9028724" lon="12.8950901"><ele>1.9999999999999998</ele><time>2026-03-30T16:45:55.135Z</time></trkpt><trkpt lat="43.9029399" lon="12.8951771"><ele>2.0</ele><time>2026-03-30T16:45:57.13Z</time></trkpt><trkpt lat="43.903005" lon="12.8952658"><ele>2.5</ele><time>2026-03-30T16:45:59.126Z</time></trkpt><trkpt lat="43.9030742" lon="12.8953482"><ele>3.0</ele><time>2026-03-30T16:46:01.138Z</time></trkpt><trkpt lat="43.9031402" lon="12.8954343"><ele>3.5</ele><time>2026-03-30T16:46:03.138Z</time></trkpt><trkpt lat="43.9031945" lon="12.8955106"><ele>4.0</ele><time>2026-03-30T16:46:05.126Z</time></trkpt><trkpt lat="43.903261" lon="12.8955917"><ele>4.5</ele><time>2026-03-30T16:46:07.133Z</time></trkpt><trkpt lat="43.9033315" lon="12.895677"><ele>5.0</ele><time>2026-03-30T16:46:09.127Z</time></trkpt><trkpt lat="43.9033924" lon="12.8957529"><ele>5.333333333333334</ele><time>2026-03-30T16:46:11.135Z</time></trkpt><trkpt lat="43.9034449" lon="12.8958323"><ele>5.666666666666667</ele><time>2026-03-30T16:46:13.136Z</time></trkpt><trkpt lat="43.9034935" lon="12.8959041"><ele>6.0</ele><time>2026-03-30T16:46:15.134Z</time></trkpt><trkpt lat="43.9035543" lon="12.8959803"><ele>6.333333333333334</ele><time>2026-03-30T16:46:17.125Z</time></trkpt><trkpt lat="43.903623" lon="12.8960263"><ele>6.666666666666667</ele><time>2026-03-30T16:46:19.13Z</time></trkpt><trkpt lat="43.9036928" lon="12.8960312"><ele>7.0</ele><time>2026-03-30T16:46:21.143Z</time></trkpt><trkpt lat="43.903776" lon="12.8960244"><ele>7.000000000000001</ele><time>2026-03-30T16:46:23.123Z</time></trkpt><trkpt lat="43.903865" lon="12.896021"><ele>7.0</ele><time>2026-03-30T16:46:25.121Z</time></trkpt><trkpt lat="43.9039488" lon="12.8960297"><ele>7.0</ele><time>2026-03-30T16:46:27.136Z</time></trkpt><trkpt lat="43.9040362" lon="12.8960376"><ele>7.0</ele><time>2026-03-30T16:46:30.129Z</time></trkpt><trkpt lat="43.904123" lon="12.8959984"><ele>7.000000000000001</ele><time>2026-03-30T16:46:33.135Z</time></trkpt><trkpt lat="43.9041901" lon="12.8959572"><ele>7.0</ele><time>2026-03-30T16:46:36.133Z</time></trkpt><trkpt lat="43.9042491" lon="12.8959173"><ele>7.166666666666667</ele><time>2026-03-30T16:46:39.152Z</time></trkpt><trkpt lat="43.9043191" lon="12.8958638"><ele>7.333333333333334</ele><time>2026-03-30T16:46:42.132Z</time></trkpt><trkpt lat="43.904393" lon="12.8958135"><ele>7.5</ele><time>2026-03-30T16:46:45.142Z</time></trkpt><trkpt lat="43.9044518" lon="12.8957453"><ele>7.666666666666666</ele><time>2026-03-30T16:46:48.139Z</time></trkpt><trkpt lat="43.9045038" lon="12.8956953"><ele>7.833333333333333</ele><time>2026-03-30T16:46:51.137Z</time></trkpt><trkpt lat="43.9045533" lon="12.8956166"><ele>8.0</ele><time>2026-03-30T16:46:54.135Z</time></trkpt><trkpt lat="43.9046025" lon="12.8955294"><ele>7.999999999999999</ele><time>2026-03-30T16:46:57.141Z</time></trkpt><trkpt lat="43.9046581" lon="12.8954342"><ele>8.0</ele><time>2026-03-30T16:47:00.134Z</time></trkpt><trkpt lat="43.9047142" lon="12.8953377"><ele>8.0</ele><time>2026-03-30T16:47:03.134Z</time></trkpt><trkpt lat="43.9047482" lon="12.8952264"><ele>8.0</ele><time>2026-03-30T16:47:06.138Z</time></trkpt><trkpt lat="43.9047372" lon="12.8951238"><ele>7.999999999999999</ele><time>2026-03-30T16:47:09.148Z</time></trkpt><trkpt lat="43.9047203" lon="12.8950082"><ele>8.0</ele><time>2026-03-30T16:47:12.141Z</time></trkpt><trkpt lat="43.9046874" lon="12.8949308"><ele>7.833333333333333</ele><time>2026-03-30T16:47:14.125Z</time></trkpt><trkpt lat="43.9046418" lon="12.8948653"><ele>7.666666666666666</ele><time>2026-03-30T16:47:16.13Z</time></trkpt><trkpt lat="43.9045868" lon="12.8947941"><ele>7.5</ele><time>2026-03-30T16:47:18.131Z</time></trkpt><trkpt lat="43.9045235" lon="12.8947177"><ele>7.333333333333334</ele><time>2026-03-30T16:47:20.129Z</time></trkpt><trkpt lat="43.904458" lon="12.8946484"><ele>7.166666666666667</ele><time>2026-03-30T16:47:22.125Z</time></trkpt><trkpt lat="43.9043998" lon="12.8945737"><ele>7.0</ele><time>2026-03-30T16:47:24.125Z</time></trkpt><trkpt lat="43.90434" lon="12.8945067"><ele>7.000000000000001</ele><time>2026-03-30T16:47:26.132Z</time></trkpt><trkpt lat="43.904284" lon="12.89444"><ele>7.0</ele><time>2026-03-30T16:47:28.134Z</time></trkpt><trkpt lat="43.9042248" lon="12.8943666"><ele>7.0</ele><time>2026-03-30T16:47:30.126Z</time></trkpt><trkpt lat="43.9041671" lon="12.8942874"><ele>7.0</ele><time>2026-03-30T16:47:32.129Z</time></trkpt><trkpt lat="43.9041096" lon="12.8942097"><ele>7.000000000000001</ele><time>2026-03-30T16:47:34.126Z</time></trkpt><trkpt lat="43.9040564" lon="12.8941288"><ele>7.0</ele><time>2026-03-30T16:47:36.136Z</time></trkpt><trkpt lat="43.9040003" lon="12.8940493"><ele>6.666666666666667</ele><time>2026-03-30T16:47:38.134Z</time></trkpt><trkpt lat="43.9039424" lon="12.8939727"><ele>6.333333333333334</ele><time>2026-03-30T16:47:40.142Z</time></trkpt><trkpt lat="43.9038967" lon="12.8939024"><ele>6.0</ele><time>2026-03-30T16:47:42.121Z</time></trkpt><trkpt lat="43.9038476" lon="12.8938331"><ele>5.666666666666667</ele><time>2026-03-30T16:47:44.124Z</time></trkpt><trkpt lat="43.9037857" lon="12.8937694"><ele>5.333333333333334</ele><time>2026-03-30T16:47:46.127Z</time></trkpt><trkpt lat="43.9037257" lon="12.8936984"><ele>5.0</ele><time>2026-03-30T16:47:48.119Z</time></trkpt><trkpt lat="43.9036722" lon="12.8936212"><ele>5.0</ele><time>2026-03-30T16:47:50.122Z</time></trkpt><trkpt lat="43.9036216" lon="12.893561"><ele>5.0</ele><time>2026-03-30T16:47:52.131Z</time></trkpt><trkpt lat="43.9035454" lon="12.893556"><ele>5.0</ele><time>2026-03-30T16:47:55.127Z</time></trkpt><trkpt lat="43.9035" lon="12.8936477"><ele>5.0</ele><time>2026-03-30T16:47:58.126Z</time></trkpt><trkpt lat="43.9034541" lon="12.8937333"><ele>5.0</ele><time>2026-03-30T16:48:01.13Z</time></trkpt><trkpt lat="43.9034016" lon="12.8938131"><ele>5.0</ele><time>2026-03-30T16:48:04.127Z</time></trkpt><trkpt lat="43.9033515" lon="12.8938938"><ele>4.666666666666667</ele><time>2026-03-30T16:48:07.124Z</time></trkpt><trkpt lat="43.903297" lon="12.8939669"><ele>4.333333333333334</ele><time>2026-03-30T16:48:10.131Z</time></trkpt><trkpt lat="43.9032466" lon="12.8940379"><ele>4.0</ele><time>2026-03-30T16:48:13.126Z</time></trkpt><trkpt lat="43.9031896" lon="12.894105"><ele>3.666666666666667</ele><time>2026-03-30T16:48:16.123Z</time></trkpt><trkpt lat="43.9031421" lon="12.8941818"><ele>3.3333333333333335</ele><time>2026-03-30T16:48:19.114Z</time></trkpt><trkpt lat="43.9030696" lon="12.8942657"><ele>3.0</ele><time>2026-03-30T16:48:22.099Z</time></trkpt><trkpt lat="43.9030082" lon="12.8943658"><ele>2.8333333333333335</ele><time>2026-03-30T16:48:24.907Z</time></trkpt><trkpt lat="43.9029619" lon="12.8944419"><ele>2.6666666666666665</ele><time>2026-03-30T16:48:27.903Z</time></trkpt><trkpt lat="43.9029091" lon="12.8944921"><ele>2.5</ele><time>2026-03-30T16:48:30.892Z</time></trkpt><trkpt lat="43.90284" lon="12.8946179"><ele>2.333333333333333</ele><time>2026-03-30T16:48:34.79Z</time></trkpt><trkpt lat="43.9028107" lon="12.8947344"><ele>2.1666666666666665</ele><time>2026-03-30T16:48:36.775Z</time></trkpt><trkpt lat="43.9027722" lon="12.8948206"><ele>2.0</ele><time>2026-03-30T16:48:38.796Z</time></trkpt><trkpt lat="43.9027783" lon="12.8949387"><ele>1.9999999999999998</ele><time>2026-03-30T16:48:43.815Z</time></trkpt><trkpt lat="43.9028289" lon="12.8950527"><ele>2.0</ele><time>2026-03-30T16:48:45.806Z</time></trkpt><trkpt lat="43.9028888" lon="12.8951267"><ele>2.0</ele><time>2026-03-30T16:48:47.808Z</time></trkpt><trkpt lat="43.9029459" lon="12.8951869"><ele>2.0</ele><time>2026-03-30T16:48:49.818Z</time></trkpt><trkpt lat="43.9030137" lon="12.8952598"><ele>1.9999999999999998</ele><time>2026-03-30T16:48:51.811Z</time></trkpt><trkpt lat="43.9030824" lon="12.8953345"><ele>2.0</ele><time>2026-03-30T16:48:53.813Z</time></trkpt><trkpt lat="43.9031468" lon="12.8954264"><ele>2.5</ele><time>2026-03-30T16:48:55.82Z</time></trkpt><trkpt lat="43.9032042" lon="12.8955046"><ele>3.0</ele><time>2026-03-30T16:48:57.818Z</time></trkpt><trkpt lat="43.9032627" lon="12.895583"><ele>3.5</ele><time>2026-03-30T16:48:59.81Z</time></trkpt><trkpt lat="43.9033277" lon="12.8956562"><ele>4.0</ele><time>2026-03-30T16:49:01.818Z</time></trkpt><trkpt lat="43.9033911" lon="12.8957407"><ele>4.5</ele><time>2026-03-30T16:49:03.816Z</time></trkpt><trkpt lat="43.903464" lon="12.8958267"><ele>5.0</ele><time>2026-03-30T16:49:05.815Z</time></trkpt><trkpt lat="43.9035326" lon="12.8959018"><ele>5.333333333333334</ele><time>2026-03-30T16:49:07.815Z</time></trkpt><trkpt lat="43.9036039" lon="12.8959653"><ele>5.666666666666667</ele><time>2026-03-30T16:49:09.82Z</time></trkpt><trkpt lat="43.903668" lon="12.8959968"><ele>6.0</ele><time>2026-03-30T16:49:11.822Z</time></trkpt><trkpt lat="43.9037357" lon="12.8960055"><ele>6.333333333333334</ele><time>2026-03-30T16:49:13.827Z</time></trkpt><trkpt lat="43.9038151" lon="12.8960016"><ele>6.666666666666667</ele><time>2026-03-30T16:49:15.811Z</time></trkpt><trkpt lat="43.903904" lon="12.8960145"><ele>7.0</ele><time>2026-03-30T16:49:17.813Z</time></trkpt><trkpt lat="43.9039824" lon="12.8960326"><ele>7.000000000000001</ele><time>2026-03-30T16:49:19.823Z</time></trkpt><trkpt lat="43.9040507" lon="12.8960332"><ele>7.0</ele><time>2026-03-30T16:49:21.8Z</time></trkpt><trkpt lat="43.9041176" lon="12.8960438"><ele>7.0</ele><time>2026-03-30T16:49:23.787Z</time></trkpt><trkpt lat="43.9041811" lon="12.8960155"><ele>7.0</ele><time>2026-03-30T16:49:26.787Z</time></trkpt><trkpt lat="43.9042657" lon="12.8960248"><ele>7.000000000000001</ele><time>2026-03-30T16:49:29.788Z</time></trkpt><trkpt lat="43.9043139" lon="12.8959142"><ele>7.0</ele><time>2026-03-30T16:49:32.79Z</time></trkpt><trkpt lat="43.9043623" lon="12.895796"><ele>7.166666666666667</ele><time>2026-03-30T16:49:34.8Z</time></trkpt><trkpt lat="43.9044156" lon="12.8957383"><ele>7.333333333333334</ele><time>2026-03-30T16:49:36.798Z</time></trkpt><trkpt lat="43.9044463" lon="12.8956567"><ele>7.5</ele><time>2026-03-30T16:49:39.803Z</time></trkpt><trkpt lat="43.9044864" lon="12.8955558"><ele>7.666666666666666</ele><time>2026-03-30T16:49:42.801Z</time></trkpt><trkpt lat="43.9045388" lon="12.8954497"><ele>7.833333333333333</ele><time>2026-03-30T16:49:45.814Z</time></trkpt><trkpt lat="43.9045911" lon="12.8953586"><ele>8.0</ele><time>2026-03-30T16:49:48.801Z</time></trkpt><trkpt lat="43.9046426" lon="12.8952669"><ele>7.999999999999999</ele><time>2026-03-30T16:49:51.802Z</time></trkpt><trkpt lat="43.9046688" lon="12.8951529"><ele>8.0</ele><time>2026-03-30T16:49:54.806Z</time></trkpt><trkpt lat="43.904672" lon="12.895027"><ele>8.0</ele><time>2026-03-30T16:49:57.814Z</time></trkpt><trkpt lat="43.904654" lon="12.8949131"><ele>8.0</ele><time>2026-03-30T16:50:00.812Z</time></trkpt><trkpt lat="43.904611" lon="12.8948437"><ele>7.999999999999999</ele><time>2026-03-30T16:50:03.815Z</time></trkpt><trkpt lat="43.9045518" lon="12.8947836"><ele>8.0</ele><time>2026-03-30T16:50:06.812Z</time></trkpt><trkpt lat="43.9044955" lon="12.894714"><ele>7.857142857142857</ele><time>2026-03-30T16:50:09.812Z</time></trkpt><trkpt lat="43.9044464" lon="12.8946523"><ele>7.7142857142857135</ele><time>2026-03-30T16:50:12.714Z</time></trkpt><trkpt lat="43.9044016" lon="12.894577"><ele>7.571428571428571</ele><time>2026-03-30T16:50:15.737Z</time></trkpt><trkpt lat="43.9043405" lon="12.8945045"><ele>7.428571428571429</ele><time>2026-03-30T16:50:18.719Z</time></trkpt><trkpt lat="43.9042733" lon="12.8944398"><ele>7.285714285714286</ele><time>2026-03-30T16:50:21.718Z</time></trkpt><trkpt lat="43.9042179" lon="12.8943594"><ele>7.142857142857142</ele><time>2026-03-30T16:50:24.721Z</time></trkpt><trkpt lat="43.9041735" lon="12.8942974"><ele>7.0</ele><time>2026-03-30T16:50:26.709Z</time></trkpt><trkpt lat="43.9041163" lon="12.8942349"><ele>6.666666666666667</ele><time>2026-03-30T16:50:28.714Z</time></trkpt><trkpt lat="43.9040591" lon="12.8941715"><ele>6.333333333333334</ele><time>2026-03-30T16:50:30.711Z</time></trkpt><trkpt lat="43.9040084" lon="12.8941141"><ele>6.0</ele><time>2026-03-30T16:50:32.715Z</time></trkpt><trkpt lat="43.9039483" lon="12.8940267"><ele>5.666666666666667</ele><time>2026-03-30T16:50:35.714Z</time></trkpt><trkpt lat="43.9038837" lon="12.8939604"><ele>5.333333333333334</ele><time>2026-03-30T16:50:38.708Z</time></trkpt><trkpt lat="43.9038044" lon="12.8938873"><ele>5.0</ele><time>2026-03-30T16:50:41.713Z</time></trkpt><trkpt lat="43.9037349" lon="12.8938047"><ele>5.0</ele><time>2026-03-30T16:50:44.406Z</time></trkpt><trkpt lat="43.9036708" lon="12.8937393"><ele>5.0</ele><time>2026-03-30T16:50:47.196Z</time></trkpt><trkpt lat="43.9036154" lon="12.8936541"><ele>5.0</ele><time>2026-03-30T16:50:50.137Z</time></trkpt><trkpt lat="43.9035565" lon="12.8936104"><ele>5.0</ele><time>2026-03-30T16:50:53.137Z</time></trkpt><trkpt lat="43.9034888" lon="12.8936766"><ele>5.0</ele><time>2026-03-30T16:50:56.144Z</time></trkpt><trkpt lat="43.903429" lon="12.8937671"><ele>5.0</ele><time>2026-03-30T16:50:59.141Z</time></trkpt><trkpt lat="43.9033818" lon="12.8938423"><ele>4.666666666666667</ele><time>2026-03-30T16:51:02.14Z</time></trkpt><trkpt lat="43.9033279" lon="12.8939322"><ele>4.333333333333334</ele><time>2026-03-30T16:51:05.137Z</time></trkpt><trkpt lat="43.9032724" lon="12.8940173"><ele>4.0</ele><time>2026-03-30T16:51:08.133Z</time></trkpt><trkpt lat="43.9032074" lon="12.894097"><ele>3.666666666666667</ele><time>2026-03-30T16:51:12.121Z</time></trkpt><trkpt lat="43.9031629" lon="12.8941623"><ele>3.3333333333333335</ele><time>2026-03-30T16:51:14.122Z</time></trkpt><trkpt lat="43.903114" lon="12.8942607"><ele>3.0</ele><time>2026-03-30T16:51:17.162Z</time></trkpt><trkpt lat="43.903052" lon="12.8943292"><ele>2.8571428571428568</ele><time>2026-03-30T16:51:20.134Z</time></trkpt><trkpt lat="43.9030065" lon="12.8943929"><ele>2.7142857142857144</ele><time>2026-03-30T16:51:22.126Z</time></trkpt><trkpt lat="43.9029536" lon="12.8944657"><ele>2.571428571428571</ele><time>2026-03-30T16:51:24.121Z</time></trkpt><trkpt lat="43.9029062" lon="12.8945287"><ele>2.4285714285714284</ele><time>2026-03-30T16:51:26.129Z</time></trkpt><trkpt lat="43.902851" lon="12.8946317"><ele>2.2857142857142856</ele><time>2026-03-30T16:51:29.118Z</time></trkpt><trkpt lat="43.9028152" lon="12.8947403"><ele>2.142857142857143</ele><time>2026-03-30T16:51:31.123Z</time></trkpt><trkpt lat="43.9027984" lon="12.8948273"><ele>2.0</ele><time>2026-03-30T16:51:33.126Z</time></trkpt><trkpt lat="43.9027862" lon="12.8949135"><ele>1.9999999999999998</ele><time>2026-03-30T16:51:35.136Z</time></trkpt><trkpt lat="43.9027955" lon="12.8950125"><ele>2.0</ele><time>2026-03-30T16:51:38.137Z</time></trkpt><trkpt lat="43.9028751" lon="12.8950832"><ele>2.0</ele><time>2026-03-30T16:51:41.135Z</time></trkpt><trkpt lat="43.9029666" lon="12.8951283"><ele>2.0</ele><time>2026-03-30T16:51:44.129Z</time></trkpt><trkpt lat="43.9030313" lon="12.8951748"><ele>1.9999999999999998</ele><time>2026-03-30T16:51:46.133Z</time></trkpt><trkpt lat="43.9031203" lon="12.8952263"><ele>2.0</ele><time>2026-03-30T16:51:49.13Z</time></trkpt><trkpt lat="43.9031765" lon="12.8952711"><ele>2.5</ele><time>2026-03-30T16:51:51.127Z</time></trkpt><trkpt lat="43.9032279" lon="12.8953268"><ele>3.0</ele><time>2026-03-30T16:51:53.127Z</time></trkpt><trkpt lat="43.9032748" lon="12.8954174"><ele>3.5</ele><time>2026-03-30T16:51:56.124Z</time></trkpt><trkpt lat="43.9033193" lon="12.8955074"><ele>4.0</ele><time>2026-03-30T16:51:59.126Z</time></trkpt><trkpt lat="43.9033825" lon="12.8955902"><ele>4.5</ele><time>2026-03-30T16:52:02.133Z</time></trkpt><trkpt lat="43.9034425" lon="12.8956723"><ele>5.0</ele><time>2026-03-30T16:52:05.134Z</time></trkpt><trkpt lat="43.9034957" lon="12.8957436"><ele>5.333333333333334</ele><time>2026-03-30T16:52:08.137Z</time></trkpt><trkpt lat="43.9035587" lon="12.8958309"><ele>5.666666666666667</ele><time>2026-03-30T16:52:11.14Z</time></trkpt><trkpt lat="43.9036151" lon="12.895878"><ele>6.0</ele><time>2026-03-30T16:52:13.157Z</time></trkpt><trkpt lat="43.9036769" lon="12.8959365"><ele>6.333333333333334</ele><time>2026-03-30T16:52:16.125Z</time></trkpt><trkpt lat="43.9037518" lon="12.8960033"><ele>6.666666666666667</ele><time>2026-03-30T16:52:20.11Z</time></trkpt><trkpt lat="43.9038269" lon="12.8960153"><ele>7.0</ele><time>2026-03-30T16:52:22.106Z</time></trkpt><trkpt lat="43.9039019" lon="12.8960147"><ele>7.0</ele><time>2026-03-30T16:52:24.117Z</time></trkpt><trkpt lat="43.9039706" lon="12.8960105"><ele>7.0</ele><time>2026-03-30T16:52:26.12Z</time></trkpt><trkpt lat="43.9040629" lon="12.8959945"><ele>7.0</ele><time>2026-03-30T16:52:29.116Z</time></trkpt><trkpt lat="43.9041267" lon="12.8959729"><ele>7.0</ele><time>2026-03-30T16:52:31.12Z</time></trkpt><trkpt lat="43.9042099" lon="12.8959221"><ele>7.0</ele><time>2026-03-30T16:52:34.127Z</time></trkpt></trkseg></trk></gpx>